Data for 04/22/2010

Time Sea-Level Adjusted Pressure Absolute Pressure Temperature Relative Humidity Dew Point Precipitation   
(mb) (inHg) (mb) (inHg) (C) (F) (%) (C) (F) (mm) (in)
00:01 1007 29.74 837 24.72 10.9 51.5 65 4.6 40.3 11.22 0.442
00:02 1007 29.74 837 24.72 10.9 51.6 65 4.6 40.2 11.27 0.444
00:03 1007 29.74 837 24.72 10.9 51.6 65 4.6 40.3 11.28 0.444
00:04 1007 29.74 837 24.72 10.9 51.6 65 4.6 40.3 11.28 0.444
00:05 1007 29.74 837 24.72 10.9 51.7 65 4.8 40.6 11.29 0.444
00:06 1007 29.74 837 24.72 10.9 51.7 65 4.6 40.4 11.29 0.444
00:07 1007 29.74 837 24.72 11 51.8 65 4.7 40.4 11.35 0.447
00:08 1007 29.74 837 24.72 11 51.8 65 4.7 40.4 11.34 0.446
00:09 1007 29.74 837 24.72 10.9 51.7 65 4.7 40.4 11.35 0.447
00:10 1007 29.74 837 24.72 11 51.8 65 4.6 40.3 11.38 0.448
00:11 1007 29.74 837 24.72 11 51.8 65 4.8 40.6 11.35 0.447
00:12 1007 29.74 837 24.72 10.9 51.6 65 4.7 40.4 11.3 0.445
00:13 1007 29.74 837 24.72 11 51.7 65 4.7 40.5 11.36 0.447
00:14 1007 29.74 837 24.72 11 51.8 65 4.8 40.6 11.32 0.446
00:15 1007 29.74 837 24.72 10.9 51.7 65 4.7 40.5 11.32 0.446
00:16 1007 29.74 837 24.72 10.9 51.7 66 4.8 40.6 11.3 0.445
00:17 1007 29.74 837 24.72 10.9 51.6 66 4.7 40.5 11.26 0.443
00:18 1007 29.74 837 24.72 10.8 51.5 66 4.8 40.6 11.23 0.442
00:19 1007 29.74 837 24.72 10.8 51.5 66 4.8 40.6 11.19 0.441
00:20 1007 29.74 837 24.72 10.8 51.5 66 4.7 40.5 11.23 0.442
00:21 1007 29.74 837 24.72 10.8 51.4 66 4.8 40.6 11.19 0.441
00:22 1007 29.74 837 24.72 10.8 51.4 67 4.8 40.7 11.12 0.438
00:23 1007 29.74 837 24.72 10.7 51.3 67 4.8 40.6 11.11 0.437
00:24 1007 29.74 836 24.69 10.7 51.3 67 4.8 40.7 11.1 0.437
00:25 1007 29.74 836 24.69 10.7 51.2 67 4.8 40.7 11.07 0.436
00:26 1007 29.74 836 24.69 10.7 51.3 66 4.7 40.5 11.1 0.437
00:27 1007 29.74 836 24.69 10.8 51.5 66 4.9 40.8 11.2 0.441
00:28 1007 29.74 836 24.69 10.8 51.4 66 4.8 40.7 11.14 0.439
00:29 1007 29.74 836 24.69 10.8 51.4 67 4.9 40.8 11.13 0.438
00:30 1007 29.74 837 24.72 10.8 51.4 67 4.8 40.7 11.15 0.439
00:31 1007 29.74 836 24.69 10.7 51.3 67 4.8 40.6 11.13 0.438
00:32 1007 29.74 836 24.69 10.7 51.3 67 4.8 40.6 11.08 0.436
00:33 1007 29.74 836 24.69 10.7 51.3 67 4.8 40.7 11.06 0.435
00:34 1007 29.74 836 24.69 10.6 51.1 67 4.8 40.7 11.06 0.435
00:35 1007 29.74 836 24.69 10.6 51.1 67 4.8 40.7 10.97 0.432
00:36 1007 29.74 836 24.69 10.6 51.1 67 4.9 40.7 11 0.433
00:37 1007 29.74 836 24.69 10.6 51.1 67 4.9 40.7 11.01 0.433
00:38 1007 29.74 836 24.69 10.6 51 68 4.9 40.8 10.99 0.433
00:39 1007 29.74 836 24.69 10.6 51 68 4.9 40.8 10.96 0.431
00:40 1007 29.74 836 24.69 10.6 51 67 4.8 40.7 11 0.433
00:41 1007 29.74 836 24.69 10.6 51.2 67 4.9 40.8 11.03 0.434
00:42 1007 29.74 836 24.69 10.6 51 68 4.9 40.8 10.96 0.431
00:43 1007 29.74 836 24.69 10.6 51 68 4.9 40.7 10.97 0.432
00:44 1007 29.74 836 24.69 10.6 51 68 4.9 40.9 10.94 0.431
00:45 1007 29.74 836 24.69 10.6 51 68 5 40.9 10.93 0.43
00:46 1007 29.74 836 24.69 10.5 50.9 68 5 41 10.92 0.43
00:47 1007 29.74 836 24.69 10.5 50.8 69 5 41 10.86 0.428
00:48 1007 29.74 837 24.72 10.5 50.9 68 4.9 40.9 10.9 0.429
00:49 1007 29.74 837 24.72 10.5 51 68 4.9 40.9 10.93 0.43
00:50 1007 29.74 837 24.72 10.6 51 68 5 41 10.96 0.431
00:51 1007 29.74 837 24.72 10.5 51 68 5 41 10.93 0.43
00:52 1007 29.74 837 24.72 10.5 50.9 69 5 41 10.93 0.43
00:53 1007 29.74 837 24.72 10.6 51 68 5 41.1 10.89 0.429
00:54 1007 29.74 837 24.72 10.5 51 68 5 41 10.91 0.43
00:55 1007 29.74 837 24.72 10.6 51.1 68 5 41 10.98 0.432
00:56 1007 29.74 837 24.72 10.7 51.2 68 5 41 11 0.433
00:57 1007 29.74 837 24.72 10.7 51.2 68 5 41.1 11.06 0.435
00:58 1007 29.74 837 24.72 10.7 51.2 68 5.1 41.1 11.07 0.436
00:59 1007 29.74 837 24.72 10.7 51.3 68 5.1 41.2 11.05 0.435
01:00 1007 29.74 837 24.72 10.8 51.4 68 5.1 41.2 11.12 0.438
01:01 1007 29.74 837 24.72 10.8 51.4 68 5.1 41.2 11.19 0.441
01:02 1007 29.74 837 24.72 10.8 51.5 68 5.2 41.3 11.18 0.44
01:03 1007 29.74 837 24.72 10.8 51.4 68 5.1 41.2 11.16 0.439
01:04 1007 29.74 837 24.72 10.8 51.5 68 5.1 41.2 11.22 0.442
01:05 1007 29.74 837 24.72 10.8 51.5 68 5.1 41.2 11.19 0.441
01:06 1007 29.74 837 24.72 10.8 51.5 68 5.1 41.2 11.21 0.441
01:07 1007 29.74 837 24.72 10.9 51.5 67 5.1 41.2 11.28 0.444
01:08 1007 29.74 837 24.72 10.9 51.6 68 5.2 41.4 11.27 0.444
01:09 1007 29.74 837 24.72 10.9 51.6 67 5.2 41.3 11.25 0.443
01:10 1007 29.74 837 24.72 10.9 51.6 68 5.2 41.3 11.28 0.444
01:11 1007 29.74 837 24.72 10.9 51.7 67 5.1 41.2 11.27 0.444
01:12 1007 29.74 837 24.72 10.9 51.6 67 5.1 41.2 11.28 0.444
01:13 1007 29.74 837 24.72 10.9 51.7 67 5.1 41.2 11.32 0.446
01:14 1007 29.74 837 24.72 11 51.7 67 5.1 41.2 11.38 0.448
01:15 1007 29.74 837 24.72 11 51.7 67 5.2 41.4 11.31 0.445
01:16 1007 29.74 837 24.72 10.9 51.6 68 5.2 41.4 11.29 0.444
01:17 1007 29.74 837 24.72 10.8 51.5 68 5.1 41.3 11.23 0.442
01:18 1007 29.74 837 24.72 10.9 51.5 68 5.2 41.3 11.22 0.442
01:19 1007 29.74 837 24.72 10.8 51.5 68 5.2 41.4 11.22 0.442
01:20 1007 29.74 837 24.72 10.8 51.4 68 5.1 41.3 11.19 0.441
01:21 1007 29.74 837 24.72 10.8 51.4 68 5.2 41.4 11.16 0.439
01:22 1007 29.74 837 24.72 10.7 51.3 68 5.1 41.3 11.11 0.437
01:23 1007 29.74 837 24.72 10.8 51.4 68 5.2 41.3 11.12 0.438
01:24 1007 29.74 837 24.72 10.7 51.3 69 5.2 41.3 11.1 0.437
01:25 1007 29.74 837 24.72 10.7 51.2 69 5.2 41.4 11.06 0.435
01:26 1007 29.74 837 24.72 10.6 51.1 69 5.2 41.3 11.01 0.433
01:27 1007 29.74 837 24.72 10.6 51.1 69 5.2 41.3 11.02 0.434
01:28 1007 29.74 837 24.72 10.6 51.1 69 5.2 41.3 11 0.433
01:29 1007 29.74 837 24.72 10.5 50.9 69 5.2 41.3 10.94 0.431
01:30 1007 29.74 837 24.72 10.6 51 69 5.2 41.3 10.97 0.432
01:31 1007 29.74 837 24.72 10.6 51.1 69 5.2 41.3 10.99 0.433
01:32 1008 29.77 837 24.72 10.6 51.1 69 5.3 41.5 10.98 0.432
01:33 1007 29.74 837 24.72 10.6 51 69 5.2 41.3 10.96 0.431
01:34 1008 29.77 837 24.72 10.6 51 69 5.2 41.3 10.96 0.431
01:35 1008 29.77 837 24.72 10.6 51 69 5.2 41.4 10.96 0.431
01:36 1008 29.77 837 24.72 10.6 51 69 5.2 41.4 10.97 0.432
01:37 1008 29.77 837 24.72 10.5 51 69 5.2 41.4 10.92 0.43
01:38 1008 29.77 837 24.72 10.6 51 69 5.2 41.4 10.94 0.431
01:39 1008 29.77 837 24.72 10.5 51 69 5.2 41.3 10.93 0.43
01:40 1008 29.77 837 24.72 10.6 51.1 69 5.3 41.5 10.98 0.432
01:41 1008 29.77 837 24.72 10.6 51 69 5.2 41.4 10.95 0.431
01:42 1008 29.77 837 24.72 10.6 51 69 5.1 41.1 11.01 0.433
01:43 1008 29.77 837 24.72 10.7 51.2 68 5.2 41.3 11.04 0.435
01:44 1008 29.77 837 24.72 10.7 51.2 69 5.2 41.4 11.06 0.435
01:45 1008 29.77 837 24.72 10.7 51.2 69 5.3 41.5 11.02 0.434
01:46 1008 29.77 837 24.72 10.6 51.1 69 5.2 41.4 11.01 0.433
01:47 1008 29.77 837 24.72 10.6 51.1 69 5.2 41.4 10.96 0.431
01:48 1008 29.77 837 24.72 10.6 51.1 69 5.1 41.3 10.98 0.432
01:49 1008 29.77 837 24.72 10.7 51.2 69 5.2 41.3 11.03 0.434
01:50 1008 29.77 837 24.72 10.7 51.2 69 5.2 41.4 11.05 0.435
01:51 1008 29.77 837 24.72 10.7 51.2 69 5.2 41.4 11.07 0.436
01:52 1008 29.77 837 24.72 10.6 51.2 69 5.2 41.4 11.06 0.435
01:53 1008 29.77 837 24.72 10.6 51.2 69 5.3 41.5 11.06 0.435
01:54 1008 29.77 837 24.72 10.7 51.2 69 5.3 41.6 11.01 0.433
01:55 1008 29.77 837 24.72 10.6 51 70 5.3 41.5 10.97 0.432
01:56 1008 29.77 837 24.72 10.5 50.9 70 5.3 41.5 10.9 0.429
01:57 1008 29.77 837 24.72 10.5 50.8 70 5.2 41.3 10.88 0.428
01:58 1008 29.77 837 24.72 10.5 50.9 69 5.2 41.3 10.89 0.429
01:59 1008 29.77 837 24.72 10.6 51 70 5.3 41.5 10.9 0.429
02:00 1008 29.77 837 24.72 10.5 50.9 70 5.2 41.4 10.91 0.43
02:01 1008 29.77 837 24.72 10.5 50.9 70 5.2 41.4 10.88 0.428
02:02 1008 29.77 837 24.72 10.5 50.9 70 5.2 41.4 10.89 0.429
02:03 1008 29.77 837 24.72 10.5 50.9 69 5.2 41.3 10.89 0.429
02:04 1008 29.77 837 24.72 10.5 50.9 70 5.3 41.5 10.86 0.428
02:05 1008 29.77 837 24.72 10.5 50.9 70 5.2 41.4 10.86 0.428
02:06 1008 29.77 837 24.72 10.5 50.9 69 5.1 41.2 10.85 0.427
02:07 1008 29.77 837 24.72 10.5 51 69 5.1 41.3 10.9 0.429
02:08 1008 29.77 837 24.72 10.6 51.1 69 5.1 41.2 10.96 0.431
02:09 1008 29.77 837 24.72 10.6 51.1 69 5.1 41.2 10.99 0.433
02:10 1007 29.74 837 24.72 10.6 51.1 69 5.1 41.3 10.99 0.433
02:11 1007 29.74 837 24.72 10.6 51.1 69 5.2 41.4 10.96 0.431
02:12 1007 29.74 837 24.72 10.5 51 70 5.2 41.4 10.84 0.427
02:13 1007 29.74 837 24.72 10.4 50.8 70 5.2 41.4 10.79 0.425
02:14 1007 29.74 837 24.72 10.3 50.6 70 5.1 41.2 10.7 0.421
02:15 1007 29.74 837 24.72 10.3 50.5 70 5.1 41.2 10.69 0.421
02:16 1007 29.74 837 24.72 10.3 50.5 70 5.1 41.1 10.73 0.422
02:17 1007 29.74 837 24.72 10.4 50.7 70 5.1 41.1 10.75 0.423
02:18 1007 29.74 837 24.72 10.4 50.7 69 5.1 41.2 10.81 0.426
02:19 1008 29.77 837 24.72 10.4 50.7 70 5.1 41.2 10.79 0.425
02:20 1007 29.74 837 24.72 10.4 50.7 70 5.1 41.2 10.72 0.422
02:21 1007 29.74 837 24.72 10.4 50.6 70 5.1 41.2 10.77 0.424
02:22 1008 29.77 837 24.72 10.3 50.6 70 5.1 41.2 10.75 0.423
02:23 1008 29.77 837 24.72 10.3 50.6 70 5.1 41.2 10.68 0.42
02:24 1008 29.77 837 24.72 10.3 50.5 70 5.1 41.1 10.62 0.418
02:25 1008 29.77 837 24.72 10.3 50.5 70 5.1 41.1 10.67 0.42
02:26 1008 29.77 837 24.72 10.2 50.4 70 5 41.1 10.64 0.419
02:27 1008 29.77 837 24.72 10.3 50.5 70 5.1 41.1 10.64 0.419
02:28 1008 29.77 837 24.72 10.2 50.4 70 5.1 41.2 10.59 0.417
02:29 1008 29.77 837 24.72 10.2 50.3 70 5 41 10.54 0.415
02:30 1008 29.77 837 24.72 10.1 50.1 71 5 41.1 10.47 0.412
02:31 1008 29.77 837 24.72 10.1 50.1 71 5 41 10.47 0.412
02:32 1008 29.77 837 24.72 10.1 50.2 71 5 41 10.47 0.412
02:33 1008 29.77 837 24.72 10.1 50.1 71 5 41 10.46 0.412
02:34 1008 29.77 837 24.72 10 50.1 71 5 41 10.42 0.41
02:35 1007 29.74 837 24.72 10 50 71 4.9 40.9 10.47 0.412
02:36 1008 29.77 837 24.72 10.1 50.1 71 5 41 10.41 0.41
02:37 1008 29.77 837 24.72 10.1 50.2 71 5 41 10.49 0.413
02:38 1007 29.74 837 24.72 10.1 50.2 70 5 41 10.5 0.413
02:39 1008 29.77 837 24.72 10.1 50.1 71 5 41 10.46 0.412
02:40 1007 29.74 837 24.72 10.1 50.3 70 5 41 10.53 0.415
02:41 1008 29.77 837 24.72 10.2 50.3 70 5 41 10.54 0.415
02:42 1008 29.77 837 24.72 10.1 50.2 71 5 41 10.44 0.411
02:43 1008 29.77 837 24.72 10.1 50.1 70 5 40.9 10.46 0.412
02:44 1008 29.77 837 24.72 10.1 50.1 71 5 41 10.47 0.412
02:45 1007 29.74 837 24.72 10.1 50.1 71 5 41 10.45 0.411
02:46 1007 29.74 837 24.72 10.1 50.2 70 5 41 10.49 0.413
02:47 1008 29.77 837 24.72 10.1 50.2 70 5 41 10.5 0.413
02:48 1008 29.77 837 24.72 10.1 50.2 70 4.9 40.9 10.47 0.412
02:49 1008 29.77 837 24.72 10.1 50.2 70 5 41 10.5 0.413
02:50 1008 29.77 837 24.72 10.1 50.1 70 5 40.9 10.45 0.411
02:51 1008 29.77 837 24.72 10 50 71 4.9 40.9 10.36 0.408
02:52 1007 29.74 837 24.72 9.9 49.8 71 5 41 10.24 0.403
02:53 1008 29.77 837 24.72 9.8 49.7 72 4.9 40.9 10.21 0.402
02:54 1007 29.74 837 24.72 9.8 49.7 72 5 40.9 10.19 0.401
02:55 1008 29.77 837 24.72 9.8 49.7 72 5 40.9 10.2 0.402
02:56 1007 29.74 837 24.72 9.9 49.7 71 4.9 40.9 10.23 0.403
02:57 1007 29.74 837 24.72 9.8 49.6 72 4.9 40.9 10.18 0.401
02:58 1007 29.74 837 24.72 9.8 49.6 72 5 41 10.08 0.397
02:59 1007 29.74 837 24.72 9.8 49.6 72 5 40.9 10.13 0.399
03:00 1007 29.74 837 24.72 9.8 49.6 72 4.9 40.8 10.1 0.398
03:01 1007 29.74 837 24.72 9.8 49.6 72 4.9 40.9 10.11 0.398
03:02 1007 29.74 837 24.72 9.7 49.5 72 4.9 40.9 10.11 0.398
03:03 1007 29.74 837 24.72 9.7 49.5 72 4.9 40.8 10.12 0.398
03:04 1007 29.74 837 24.72 9.8 49.6 72 4.9 40.9 10.14 0.399
03:05 1007 29.74 837 24.72 9.7 49.4 72 5 40.9 10.05 0.396
03:06 1007 29.74 837 24.72 9.6 49.3 73 4.9 40.9 9.98 0.393
03:07 1007 29.74 837 24.72 9.6 49.2 73 4.9 40.8 9.97 0.393
03:08 1007 29.74 837 24.72 9.6 49.2 72 4.9 40.8 10.02 0.394
03:09 1007 29.74 837 24.72 9.7 49.4 72 4.9 40.8 10.06 0.396
03:10 1007 29.74 837 24.72 9.7 49.4 72 4.9 40.8 10.11 0.398
03:11 1007 29.74 837 24.72 9.7 49.5 72 5 40.9 10.05 0.396
03:12 1007 29.74 837 24.72 9.6 49.4 72 5 40.9 10.02 0.394
03:13 1007 29.74 837 24.72 9.6 49.3 72 4.9 40.8 10.02 0.394
03:14 1007 29.74 837 24.72 9.7 49.5 72 4.9 40.9 10.08 0.397
03:15 1008 29.77 837 24.72 9.7 49.5 72 4.9 40.9 10.12 0.398
03:16 1007 29.74 837 24.72 9.7 49.5 72 4.9 40.8 10.11 0.398
03:17 1007 29.74 837 24.72 9.6 49.4 72 4.9 40.9 10.03 0.395
03:18 1007 29.74 837 24.72 9.6 49.2 73 4.9 40.8 9.94 0.391
03:19 1007 29.74 837 24.72 9.4 48.9 73 4.9 40.7 9.79 0.385
03:20 1007 29.74 837 24.72 9.3 48.7 74 4.9 40.8 9.67 0.381
03:21 1007 29.74 837 24.72 9.3 48.7 74 4.9 40.8 9.71 0.382
03:22 1007 29.74 837 24.72 9.4 48.8 74 4.9 40.9 9.74 0.383
03:23 1007 29.74 837 24.72 9.4 48.9 74 5 41 9.79 0.385
03:24 1007 29.74 837 24.72 9.4 49 74 5 41 9.85 0.388
03:25 1007 29.74 837 24.72 9.6 49.2 73 5 41 9.92 0.391
03:26 1007 29.74 837 24.72 9.7 49.4 72 5 41 10.04 0.395
03:27 1007 29.74 837 24.72 9.7 49.4 72 4.8 40.7 10.02 0.394
03:28 1007 29.74 837 24.72 9.3 48.8 72 4.6 40.2 9.76 0.384
03:29 1007 29.74 837 24.72 8.9 48 73 4.4 39.9 9.43 0.371
03:30 1007 29.74 837 24.72 8.5 47.3 75 4.3 39.8 9.04 0.356
03:31 1007 29.74 837 24.72 8.3 46.9 76 4.2 39.6 8.78 0.346
03:32 1007 29.74 837 24.72 8 46.4 76 4 39.2 8.55 0.337
03:33 1007 29.74 837 24.72 7.8 46 75 3.7 38.7 8.24 0.324
03:34 1007 29.74 837 24.72 7.6 45.6 76 3.6 38.5 8.02 0.316
03:35 1007 29.74 837 24.72 7.4 45.3 77 3.6 38.4 7.81 0.307
03:36 1007 29.74 837 24.72 7.3 45.1 77 3.5 38.4 7.7 0.303
03:37 1007 29.74 837 24.72 7.2 45 78 3.6 38.5 7.61 0.3
03:38 1008 29.77 837 24.72 7.1 44.8 79 3.7 38.6 7.52 0.296
03:39 1008 29.77 837 24.72 7.1 44.7 79 3.6 38.5 7.48 0.294
03:40 1008 29.77 837 24.72 7 44.6 79 3.5 38.3 7.39 0.291
03:41 1008 29.77 837 24.72 6.8 44.3 79 3.4 38.2 7.31 0.288
03:42 1008 29.77 837 24.72 6.8 44.3 79 3.5 38.2 7.23 0.285
03:43 1007 29.74 837 24.72 6.8 44.3 79 3.5 38.2 7.21 0.284
03:44 1008 29.77 837 24.72 6.8 44.3 79 3.4 38.2 7.19 0.283
03:45 1007 29.74 837 24.72 6.8 44.3 79 3.4 38.1 7.23 0.285
03:46 1007 29.74 837 24.72 6.9 44.5 78 3.4 38.2 7.3 0.287
03:47 1007 29.74 837 24.72 7.1 44.7 77 3.4 38.1 7.44 0.293
03:48 1007 29.74 837 24.72 7.2 44.9 77 3.4 38.1 7.55 0.297
03:49 1007 29.74 837 24.72 7.3 45.1 76 3.4 38.1 7.68 0.302
03:50 1007 29.74 837 24.72 7.3 45.1 76 3.4 38.1 7.68 0.302
03:51 1007 29.74 837 24.72 7.2 45 76 3.3 38 7.65 0.301
03:52 1007 29.74 837 24.72 7.2 45 76 3.3 37.9 7.64 0.301
03:53 1007 29.74 837 24.72 7.2 45 76 3.3 37.9 7.61 0.3
03:54 1007 29.74 837 24.72 7.2 44.9 76 3.2 37.7 7.57 0.298
03:55 1007 29.74 837 24.72 7 44.6 76 3.1 37.6 7.47 0.294
03:56 1007 29.74 837 24.72 7.1 44.7 76 3.1 37.6 7.45 0.293
03:57 1007 29.74 837 24.72 7.1 44.8 75 3 37.4 7.46 0.294
03:58 1007 29.74 837 24.72 7 44.6 75 2.9 37.2 7.41 0.292
03:59 1008 29.77 837 24.72 6.9 44.5 75 2.9 37.2 7.35 0.289
04:00 1007 29.74 837 24.72 6.9 44.4 76 3 37.4 7.25 0.285
04:01 1007 29.74 837 24.72 6.9 44.4 76 3 37.4 7.26 0.286
04:02 1008 29.77 837 24.72 6.9 44.4 76 3 37.4 7.23 0.285
04:03 1007 29.74 837 24.72 6.8 44.3 76 2.9 37.3 7.23 0.285
04:04 1007 29.74 837 24.72 6.8 44.2 76 3 37.3 7.2 0.283
04:05 1007 29.74 837 24.72 6.8 44.3 77 3 37.5 7.18 0.283
04:06 1007 29.74 837 24.72 6.9 44.4 76 2.9 37.3 7.19 0.283
04:07 1007 29.74 837 24.72 6.8 44.2 75 2.6 36.6 7.05 0.278
04:08 1007 29.74 837 24.72 6.5 43.7 75 2.5 36.4 6.883 0.271
04:09 1007 29.74 837 24.72 6.2 43.1 76 2.2 36 6.538 0.257
04:10 1007 29.74 837 24.72 5.8 42.4 78 2.2 36 6.131 0.241
04:11 1007 29.74 837 24.72 5.5 42 80 2.4 36.3 5.866 0.231
04:12 1008 29.77 837 24.72 5.5 41.8 80 2.3 36.2 5.81 0.229
04:13 1007 29.74 837 24.72 5.5 41.9 81 2.6 36.6 5.901 0.232
04:14 1007 29.74 837 24.72 5.7 42.2 80 2.6 36.7 6.02 0.237
04:15 1007 29.74 837 24.72 5.7 42.3 80 2.6 36.7 6.099 0.24
04:16 1008 29.77 837 24.72 5.7 42.3 80 2.5 36.6 6.128 0.241
04:17 1008 29.77 837 24.72 5.7 42.3 81 2.7 36.9 6.145 0.242
04:18 1008 29.77 837 24.72 6 42.7 80 2.7 36.9 6.292 0.248
04:19 1008 29.77 837 24.72 6.1 43 79 2.7 36.9 6.462 0.254
04:20 1008 29.77 837 24.72 6.2 43.2 79 2.8 37 6.559 0.258
04:21 1008 29.77 837 24.72 6.3 43.3 78 2.7 36.9 6.643 0.262
04:22 1008 29.77 837 24.72 6.3 43.3 79 2.8 37.1 6.638 0.261
04:23 1008 29.77 837 24.72 6.3 43.4 78 2.8 37.1 6.718 0.264
04:24 1008 29.77 837 24.72 6.4 43.6 78 2.8 37.1 6.797 0.268
04:25 1008 29.77 837 24.72 6.5 43.6 78 2.9 37.3 6.871 0.271
04:26 1008 29.77 837 24.72 6.5 43.7 78 3 37.4 6.865 0.27
04:27 1007 29.74 837 24.72 6.6 43.8 78 3 37.4 6.961 0.274
04:28 1007 29.74 837 24.72 6.6 44 77 3 37.4 7 0.276
04:29 1007 29.74 837 24.72 6.7 44 78 3.1 37.5 7.01 0.276
04:30 1007 29.74 837 24.72 6.7 44.1 77 3.1 37.6 7.09 0.279
04:31 1007 29.74 837 24.72 6.7 44.1 77 3.1 37.5 7.13 0.281
04:32 1007 29.74 837 24.72 6.8 44.2 76 2.8 37 7.12 0.28
04:33 1007 29.74 837 24.72 6.6 43.8 79 3.1 37.7 7.01 0.276
04:34 1007 29.74 837 24.72 6.6 43.8 79 3.2 37.8 6.962 0.274
04:35 1007 29.74 837 24.72 6.5 43.8 78 2.9 37.3 6.883 0.271
04:36 1007 29.74 837 24.72 6.5 43.7 81 3.5 38.4 6.832 0.269
04:37 1007 29.74 837 24.72 6.6 44 79 3.3 38 6.968 0.274
04:38 1007 29.74 837 24.72 6.7 44.1 81 3.6 38.5 7.02 0.276
04:39 1007 29.74 837 24.72 6.9 44.3 78 3.2 37.8 7.16 0.282
04:40 1007 29.74 837 24.72 6.8 44.2 76 2.8 37.1 7.01 0.276
04:41 1007 29.74 837 24.72 6.5 43.7 80 3.2 37.8 6.77 0.267
04:42 1007 29.74 837 24.72 6.5 43.7 84 3.9 39 6.872 0.271
04:43 1007 29.74 837 24.72 6.6 43.9 82 3.8 38.9 7.07 0.278
04:44 1007 29.74 837 24.72 6.9 44.4 81 3.8 38.9 7.25 0.285
04:45 1007 29.74 837 24.72 7 44.7 80 3.9 39 7.42 0.292
04:46 1007 29.74 837 24.72 7.2 45 80 3.9 39.1 7.6 0.299
04:47 1007 29.74 837 24.72 7.4 45.2 80 4.1 39.4 7.74 0.305
04:48 1007 29.74 837 24.72 7.5 45.5 78 3.9 39 7.95 0.313
04:49 1007 29.74 837 24.72 7.6 45.7 78 4.1 39.4 7.95 0.313
04:50 1007 29.74 837 24.72 7.6 45.6 79 4.1 39.4 7.94 0.313
04:51 1007 29.74 837 24.72 7.6 45.6 79 4.2 39.6 7.94 0.313
04:52 1007 29.74 837 24.72 7.6 45.6 78 3.9 39.1 7.92 0.312
04:53 1007 29.74 837 24.72 7.4 45.2 79 3.9 39.1 7.67 0.302
04:54 1007 29.74 837 24.72 7.2 44.9 80 4 39.1 7.59 0.299
04:55 1007 29.74 837 24.72 7.1 44.7 82 4.1 39.5 7.48 0.294
04:56 1007 29.74 837 24.72 7.1 44.7 79 3.7 38.7 7.51 0.296
04:57 1007 29.74 837 24.72 7 44.7 79 3.7 38.6 7.44 0.293
04:58 1007 29.74 837 24.72 7 44.6 80 3.8 38.9 7.36 0.29
04:59 1007 29.74 837 24.72 6.7 44.1 80 3.5 38.2 7.19 0.283
05:00 1007 29.74 837 24.72 6.4 43.6 81 3.4 38.1 6.908 0.272
05:01 1007 29.74 837 24.72 6.2 43.2 84 3.7 38.6 6.7 0.264
05:02 1007 29.74 837 24.72 6.2 43.2 84 3.7 38.6 6.654 0.262
05:03 1007 29.74 837 24.72 6.2 43.2 84 3.8 38.9 6.649 0.262
05:04 1007 29.74 837 24.72 6.2 43.2 85 3.9 39 6.62 0.261
05:05 1007 29.74 837 24.72 6.3 43.3 84 3.8 38.8 6.637 0.261
05:06 1007 29.74 837 24.72 6.3 43.3 83 3.6 38.5 6.615 0.26
05:07 1007 29.74 837 24.72 6.2 43.1 84 3.6 38.6 6.553 0.258
05:08 1008 29.77 837 24.72 6.2 43.1 86 3.9 39.1 6.576 0.259
05:09 1008 29.77 837 24.72 6.3 43.4 84 3.9 39 6.65 0.262
05:10 1007 29.74 837 24.72 6.4 43.6 83 3.7 38.7 6.775 0.267
05:11 1008 29.77 837 24.72 6.4 43.6 82 3.6 38.5 6.775 0.267
05:12 1008 29.77 837 24.72 6.3 43.4 83 3.7 38.7 6.73 0.265
05:13 1008 29.77 837 24.72 6.3 43.3 82 3.5 38.3 6.623 0.261
05:14 1008 29.77 837 24.72 6.1 43 84 3.6 38.4 6.515 0.256
05:15 1008 29.77 837 24.72 6.1 42.9 83 3.4 38.1 6.454 0.254
05:16 1008 29.77 837 24.72 5.9 42.7 82 3.2 37.7 6.273 0.247
05:17 1008 29.77 837 24.72 5.7 42.2 85 3.3 37.9 6.081 0.239
05:18 1008 29.77 837 24.72 5.6 42 86 3.4 38.1 6.014 0.237
05:19 1008 29.77 837 24.72 5.5 41.9 86 3.4 38.1 5.93 0.233
05:20 1008 29.77 837 24.72 5.4 41.8 87 3.4 38.1 5.896 0.232
05:21 1008 29.77 837 24.72 5.4 41.8 86 3.3 38 5.862 0.231
05:22 1007 29.74 837 24.72 5.4 41.7 87 3.4 38.1 5.777 0.227
05:23 1008 29.77 837 24.72 5.4 41.7 87 3.3 38 5.709 0.225
05:24 1008 29.77 837 24.72 5.4 41.7 87 3.4 38.2 5.779 0.228
05:25 1008 29.77 837 24.72 5.4 41.8 85 3.1 37.6 5.745 0.226
05:26 1008 29.77 837 24.72 5.3 41.6 86 3.2 37.8 5.672 0.223
05:27 1008 29.77 837 24.72 5.3 41.5 87 3.3 38 5.661 0.223
05:28 1008 29.77 837 24.72 5.3 41.5 86 3.1 37.6 5.656 0.223
05:29 1008 29.77 837 24.72 5.1 41.2 87 3.1 37.6 5.52 0.217
05:30 1008 29.77 837 24.72 5.1 41.2 85 2.9 37.2 5.527 0.218
05:31 1008 29.77 837 24.72 5 41 86 2.9 37.2 5.368 0.211
05:32 1008 29.77 837 24.72 5 40.9 86 2.8 37 5.278 0.208
05:33 1008 29.77 837 24.72 5.1 41.2 84 2.6 36.6 5.426 0.214
05:34 1008 29.77 837 24.72 5 41 83 2.4 36.3 5.346 0.21
05:35 1008 29.77 837 24.72 4.8 40.6 84 2.3 36.1 5.143 0.202
05:36 1008 29.77 837 24.72 4.7 40.4 85 2.3 36.2 5.064 0.199
05:37 1008 29.77 837 24.72 4.6 40.3 87 2.7 36.8 5.013 0.197
05:38 1008 29.77 837 24.72 4.8 40.6 88 2.9 37.2 5.183 0.204
05:39 1008 29.77 837 24.72 5.1 41.1 87 3 37.5 5.489 0.216
05:40 1008 29.77 837 24.72 5.3 41.6 85 3 37.3 5.698 0.224
05:41 1008 29.77 837 24.72 5.4 41.7 84 3 37.4 5.732 0.226
05:42 1008 29.77 837 24.72 5.4 41.8 84 3 37.3 5.834 0.23
05:43 1008 29.77 837 24.72 5.6 42 86 3.4 38.1 5.936 0.234
05:44 1008 29.77 837 24.72 5.8 42.5 87 3.8 38.9 6.163 0.243
05:45 1008 29.77 837 24.72 6.2 43.1 84 3.7 38.7 6.502 0.256
05:46 1008 29.77 837 24.72 6.4 43.5 82 3.6 38.5 6.661 0.262
05:47 1008 29.77 837 24.72 6.4 43.5 83 3.7 38.6 6.717 0.264
05:48 1008 29.77 837 24.72 6.4 43.5 82 3.6 38.5 6.712 0.264
05:49 1008 29.77 837 24.72 6.3 43.4 82 3.5 38.3 6.644 0.262
05:50 1008 29.77 837 24.72 6.2 43.2 83 3.5 38.3 6.571 0.259
05:51 1008 29.77 837 24.72 6.2 43.1 82 3.3 37.9 6.503 0.256
05:52 1008 29.77 837 24.72 6.1 42.9 82 3.3 37.9 6.412 0.252
05:53 1008 29.77 837 24.72 5.9 42.6 83 3.2 37.8 6.277 0.247
05:54 1008 29.77 837 24.72 5.8 42.4 83 3.1 37.7 6.203 0.244
05:55 1008 29.77 837 24.72 5.7 42.3 84 3.2 37.7 6.13 0.241
05:56 1008 29.77 837 24.72 5.8 42.4 84 3.3 37.9 6.169 0.243
05:57 1008 29.77 837 24.72 5.8 42.4 84 3.3 37.9 6.164 0.243
05:58 1008 29.77 837 24.72 5.7 42.3 85 3.4 38.1 6.118 0.241
05:59 1008 29.77 837 24.72 5.7 42.2 84 3.2 37.7 6.051 0.238
06:00 1008 29.77 837 24.72 5.6 42 85 3.2 37.8 5.983 0.236
06:01 1008 29.77 837 24.72 5.6 42.1 84 3.2 37.7 5.938 0.234
06:02 1008 29.77 837 24.72 5.6 42 84 3.1 37.6 5.932 0.234
06:03 1008 29.77 837 24.72 5.5 41.9 84 3 37.3 5.898 0.232
06:04 1008 29.77 837 24.72 5.4 41.7 84 2.9 37.3 5.791 0.228
06:05 1008 29.77 837 24.72 5.3 41.5 84 2.9 37.2 5.711 0.225
06:06 1008 29.77 837 24.72 5.2 41.4 85 2.8 37.1 5.621 0.221
06:07 1008 29.77 837 24.72 5.1 41.1 86 2.9 37.2 5.508 0.217
06:08 1008 29.77 837 24.72 5.1 41.1 87 3.1 37.6 5.491 0.216
06:09 1008 29.77 837 24.72 5.1 41.3 87 3.2 37.8 5.559 0.219
06:10 1008 29.77 837 24.72 5.3 41.5 87 3.4 38.1 5.661 0.223
06:11 1008 29.77 837 24.72 5.4 41.8 86 3.3 38 5.762 0.227
06:12 1008 29.77 837 24.72 5.4 41.8 86 3.4 38.1 5.785 0.228
06:13 1008 29.77 837 24.72 5.4 41.8 86 3.3 38 5.774 0.227
06:14 1008 29.77 837 24.72 5.4 41.8 86 3.3 37.9 5.751 0.226
06:15 1008 29.77 837 24.72 5.4 41.6 86 3.2 37.8 5.712 0.225
06:16 1008 29.77 837 24.72 5.3 41.5 86 3.2 37.7 5.632 0.222
06:17 1008 29.77 837 24.72 5.2 41.3 87 3.2 37.8 5.531 0.218
06:18 1008 29.77 837 24.72 5.1 41.2 88 3.4 38 5.491 0.216
06:19 1008 29.77 837 24.72 5.3 41.5 90 3.7 38.7 5.627 0.222
06:20 1008 29.77 837 24.72 5.6 42 88 3.7 38.6 5.881 0.232
06:21 1008 29.77 837 24.72 5.6 42.1 82 2.8 37.1 5.825 0.229
06:22 1008 29.77 837 24.72 5.3 41.5 83 2.6 36.6 5.508 0.217
06:23 1008 29.77 837 24.72 5 40.9 84 2.5 36.5 5.253 0.207
06:24 1008 29.77 837 24.72 4.8 40.6 86 2.6 36.7 5.112 0.201
06:25 1008 29.77 837 24.72 4.6 40.3 87 2.6 36.7 5.016 0.197
06:26 1008 29.77 837 24.72 4.5 40.1 88 2.7 36.9 4.948 0.195
06:27 1008 29.77 837 24.72 4.5 40 89 2.8 37 4.874 0.192
06:28 1008 29.77 837 24.72 4.5 40 90 2.9 37.3 4.914 0.193
06:29 1008 29.77 837 24.72 4.6 40.3 89 2.9 37.3 5.01 0.197
06:30 1008 29.77 837 24.72 4.8 40.7 87 2.9 37.2 5.135 0.202
06:31 1008 29.77 837 24.72 5 40.9 86 2.9 37.2 5.287 0.208
06:32 1008 29.77 837 24.72 5.1 41.2 86 3 37.4 5.412 0.213
06:33 1008 29.77 837 24.72 5.2 41.4 84 2.6 36.8 5.468 0.215
06:34 1008 29.77 837 24.72 5 41 83 2.3 36.2 5.293 0.208
06:35 1008 29.77 837 24.72 4.7 40.5 83 2.1 35.8 5.072 0.2
06:36 1008 29.77 837 24.72 4.5 40.2 84 2 35.6 4.92 0.194
06:37 1008 29.77 837 24.72 4.4 40 84 2 35.7 4.784 0.188
06:38 1008 29.77 837 24.72 4.4 39.9 85 2.1 35.7 4.71 0.185
06:39 1008 29.77 837 24.72 4.3 39.7 85 2 35.7 4.688 0.185
06:40 1008 29.77 837 24.72 4.4 39.9 85 2 35.6 4.744 0.187
06:41 1008 29.77 837 24.72 4.4 39.9 85 2 35.7 4.761 0.187
06:42 1008 29.77 837 24.72 4.5 40.1 85 2.2 36 4.874 0.192
06:43 1008 29.77 837 24.72 4.7 40.4 85 2.3 36.2 4.999 0.197
06:44 1008 29.77 837 24.72 4.9 40.8 84 2.5 36.4 5.169 0.204
06:45 1008 29.77 837 24.72 5 41.1 84 2.5 36.6 5.361 0.211
06:46 1008 29.77 837 24.72 5.1 41.2 84 2.6 36.8 5.451 0.215
06:47 1008 29.77 837 24.72 5.2 41.4 84 2.7 36.8 5.536 0.218
06:48 1008 29.77 837 24.72 5.3 41.5 83 2.7 36.8 5.615 0.221
06:49 1008 29.77 837 24.72 5.4 41.7 84 2.8 37.1 5.683 0.224
06:50 1008 29.77 837 24.72 5.5 41.8 84 2.9 37.2 5.802 0.228
06:51 1008 29.77 837 24.72 5.5 41.9 83 2.9 37.2 5.881 0.232
06:52 1008 29.77 837 24.72 5.5 42 83 2.9 37.3 5.915 0.233
06:53 1008 29.77 837 24.72 5.5 42 84 3 37.4 5.978 0.235
06:54 1008 29.77 837 24.72 5.6 42.1 84 3.1 37.5 6.051 0.238
06:55 1008 29.77 837 24.72 5.7 42.2 84 3.1 37.6 6.079 0.239
06:56 1008 29.77 837 24.72 5.7 42.3 84 3.2 37.7 6.057 0.238
06:57 1008 29.77 837 24.72 5.7 42.2 84 3.2 37.7 6.119 0.241
06:58 1008 29.77 837 24.72 5.7 42.3 84 3.3 37.9 6.113 0.241
06:59 1008 29.77 837 24.72 5.8 42.4 84 3.3 38 6.147 0.242
07:00 1008 29.77 837 24.72 5.9 42.6 84 3.4 38.1 6.221 0.245
07:01 1008 29.77 837 24.72 6 42.8 84 3.6 38.4 6.368 0.251
07:02 1008 29.77 837 24.72 6 42.9 82 3.3 37.9 6.385 0.251
07:03 1008 29.77 837 24.72 5.9 42.6 80 2.8 37 6.249 0.246
07:04 1008 29.77 837 24.72 5.8 42.5 81 2.7 36.9 6.136 0.242
07:05 1008 29.77 837 24.72 5.6 42.2 81 2.6 36.7 6.045 0.238
07:06 1008 29.77 837 24.72 5.5 42 81 2.6 36.7 5.966 0.235
07:07 1008 29.77 837 24.72 5.5 41.9 82 2.7 36.9 5.87 0.231
07:08 1008 29.77 837 24.72 5.3 41.6 82 2.6 36.6 5.785 0.228
07:09 1008 29.77 837 24.72 5.3 41.6 83 2.7 36.8 5.746 0.226
07:10 1008 29.77 837 24.72 5.3 41.5 83 2.7 36.8 5.723 0.225
07:11 1008 29.77 837 24.72 5.3 41.5 83 2.7 36.8 5.751 0.226
07:12 1008 29.77 837 24.72 5.3 41.6 83 2.7 36.8 5.734 0.226
07:13 1008 29.77 837 24.72 5.4 41.6 83 2.8 37 5.734 0.226
07:14 1008 29.77 837 24.72 5.3 41.5 84 2.8 37 5.706 0.225
07:15 1008 29.77 837 24.72 5.3 41.5 84 2.9 37.1 5.706 0.225
07:16 1008 29.77 837 24.72 5.3 41.6 84 2.9 37.2 5.695 0.224
07:17 1008 29.77 837 24.72 5.4 41.6 85 3 37.4 5.74 0.226
07:18 1008 29.77 837 24.72 5.3 41.6 85 3 37.4 5.78 0.228
07:19 1008 29.77 837 24.72 5.5 41.8 84 3 37.5 5.87 0.231
07:20 1008 29.77 837 24.72 5.5 41.9 84 3 37.5 5.91 0.233
07:21 1008 29.77 837 24.72 5.6 42 84 3.1 37.5 5.955 0.234
07:22 1008 29.77 837 24.72 5.6 42.1 84 3.1 37.5 6.028 0.237
07:23 1008 29.77 837 24.72 5.7 42.2 83 3.1 37.5 6.079 0.239
07:24 1008 29.77 837 24.72 5.8 42.4 83 3.1 37.7 6.187 0.244
07:25 1008 29.77 837 24.72 5.8 42.4 83 3.2 37.7 6.21 0.244
07:26 1008 29.77 837 24.72 5.8 42.5 84 3.3 37.9 6.255 0.246
07:27 1008 29.77 837 24.72 5.9 42.6 84 3.4 38.1 6.289 0.248
07:28 1008 29.77 837 24.72 5.9 42.7 84 3.5 38.3 6.328 0.249
07:29 1008 29.77 837 24.72 5.9 42.7 84 3.5 38.3 6.368 0.251
07:30 1008 29.77 837 24.72 6 42.8 84 3.4 38.2 6.424 0.253
07:31 1008 29.77 837 24.72 6 42.9 84 3.6 38.4 6.47 0.255
07:32 1008 29.77 837 24.72 6.1 43 84 3.7 38.6 6.572 0.259
07:33 1008 29.77 837 24.72 6.2 43.2 84 3.8 38.9 6.623 0.261
07:34 1008 29.77 837 24.72 6.4 43.4 84 3.9 38.9 6.753 0.266
07:35 1008 29.77 837 24.72 6.4 43.5 83 3.8 38.8 6.798 0.268
07:36 1008 29.77 837 24.72 6.4 43.6 83 3.8 38.8 6.843 0.269
07:37 1008 29.77 837 24.72 6.4 43.6 83 3.7 38.7 6.9 0.272
07:38 1008 29.77 837 24.72 6.4 43.6 83 3.7 38.6 6.849 0.27
07:39 1008 29.77 837 24.72 6.4 43.5 82 3.6 38.5 6.821 0.269
07:40 1008 29.77 837 24.72 6.3 43.4 82 3.5 38.4 6.764 0.266
07:41 1008 29.77 837 24.72 6.4 43.5 83 3.7 38.7 6.77 0.267
07:42 1008 29.77 837 24.72 6.4 43.6 83 3.8 38.9 6.877 0.271
07:43 1008 29.77 837 24.72 6.4 43.6 84 3.9 39 6.894 0.271
07:44 1008 29.77 837 24.72 6.5 43.6 83 3.8 38.8 6.951 0.274
07:45 1008 29.77 837 24.72 6.6 43.8 83 3.9 39 7.01 0.276
07:46 1008 29.77 837 24.72 6.6 44 83 4 39.3 7.13 0.281
07:47 1008 29.77 837 24.72 6.7 44.1 84 4.2 39.5 7.27 0.286
07:48 1008 29.77 837 24.72 6.9 44.5 85 4.6 40.3 7.43 0.293
07:49 1008 29.77 837 24.72 7.1 44.9 82 4.3 39.8 7.73 0.304
07:50 1008 29.77 837 24.72 7.4 45.4 83 4.8 40.6 7.95 0.313
07:51 1008 29.77 837 24.72 7.7 45.9 81 4.6 40.4 8.29 0.326
07:52 1008 29.77 837 24.72 8 46.4 82 5.2 41.3 8.57 0.337
07:53 1008 29.77 837 24.72 8.4 47 79 4.9 40.8 8.89 0.35
07:54 1008 29.77 837 24.72 8.5 47.3 79 5.1 41.1 9.08 0.357
07:55 1008 29.77 837 24.72 8.7 47.6 77 4.8 40.6 9.25 0.364
07:56 1008 29.77 837 24.72 8.8 47.8 77 5 41 9.36 0.369
07:57 1008 29.77 837 24.72 8.9 48 77 5 41.1 9.46 0.372
07:58 1008 29.77 837 24.72 8.9 48.1 76 5 41 9.48 0.373
07:59 1008 29.77 837 24.72 9 48.2 77 5.2 41.3 9.55 0.376
08:00 1008 29.77 837 24.72 9 48.2 76 5 41 9.57 0.377
08:01 1008 29.77 837 24.72 9.1 48.3 79 5.7 42.2 9.64 0.38
08:02 1008 29.77 837 24.72 9.2 48.5 77 5.3 41.5 9.76 0.384
08:03 1008 29.77 837 24.72 9.2 48.6 78 5.6 42.1 9.8 0.386
08:04 1008 29.77 837 24.72 9.3 48.7 75 5.1 41.2 9.85 0.388
08:05 1008 29.77 837 24.72 9.2 48.6 77 5.4 41.8 9.8 0.386
08:06 1008 29.77 837 24.72 9.2 48.5 77 5.3 41.6 9.7 0.382
08:07 1008 29.77 837 24.72 9.1 48.3 78 5.4 41.7 9.66 0.38
08:08 1008 29.77 837 24.72 9 48.2 78 5.4 41.7 9.52 0.375
08:09 1008 29.77 837 24.72 9 48.1 78 5.4 41.7 9.45 0.372
08:10 1008 29.77 837 24.72 8.9 48 78 5.3 41.5 9.42 0.371
08:11 1008 29.77 837 24.72 8.9 48 78 5.3 41.5 9.38 0.369
08:12 1008 29.77 837 24.72 8.9 48 76 4.9 40.9 9.33 0.367
08:13 1008 29.77 837 24.72 8.9 47.9 77 5 41 9.28 0.365
08:14 1008 29.77 837 24.72 8.9 48 76 4.8 40.7 9.3 0.366
08:15 1008 29.77 837 24.72 8.9 48 78 5.2 41.4 9.26 0.365
08:16 1008 29.77 837 24.72 8.9 48 78 5.3 41.5 9.24 0.364
08:17 1008 29.77 837 24.72 8.8 47.9 77 5 41.1 9.22 0.363
08:18 1008 29.77 837 24.72 8.8 47.9 77 5.1 41.1 9.23 0.363
08:19 1008 29.77 837 24.72 8.8 47.9 77 5 40.9 9.21 0.363
08:20 1008 29.77 837 24.72 8.8 47.9 77 5 41 9.22 0.363
08:21 1008 29.77 837 24.72 8.8 47.9 77 5 41 9.2 0.362
08:22 1008 29.77 837 24.72 8.8 47.8 77 5 40.9 9.17 0.361
08:23 1008 29.77 837 24.72 8.8 47.8 77 4.9 40.8 9.21 0.363
08:24 1008 29.77 837 24.72 8.8 47.9 77 5 41 9.19 0.362
08:25 1008 29.77 837 24.72 8.9 48 77 5.2 41.3 9.25 0.364
08:26 1008 29.77 837 24.72 9 48.1 76 4.9 40.9 9.35 0.368
08:27 1008 29.77 837 24.72 9.1 48.4 76 5.1 41.2 9.48 0.373
08:28 1008 29.77 837 24.72 9.3 48.7 76 5.3 41.5 9.66 0.38
08:29 1008 29.77 837 24.72 9.5 49 75 5.3 41.5 9.79 0.385
08:30 1008 29.77 837 24.72 9.6 49.2 73 5.1 41.1 9.91 0.39
08:31 1008 29.77 837 24.72 9.6 49.4 73 5.1 41.1 9.99 0.393
08:32 1008 29.77 837 24.72 9.7 49.5 74 5.3 41.5 10.16 0.4
08:33 1008 29.77 837 24.72 9.9 49.8 75 5.6 42.1 10.27 0.404
08:34 1008 29.77 837 24.72 10.1 50.1 72 5.3 41.6 10.38 0.409
08:35 1008 29.77 837 24.72 10.1 50.3 70 4.9 40.9 10.48 0.413
08:36 1008 29.77 837 24.72 10.2 50.4 70 5.1 41.2 10.53 0.415
08:37 1008 29.77 837 24.72 10.3 50.6 72 5.5 41.9 10.59 0.417
08:38 1008 29.77 837 24.72 10.4 50.7 71 5.5 41.8 10.7 0.421
08:39 1008 29.77 837 24.72 10.5 50.9 72 5.7 42.2 10.79 0.425
08:40 1008 29.77 837 24.72 10.6 51 69 5.2 41.4 10.89 0.429
08:41 1008 29.77 837 24.72 10.6 51 70 5.4 41.8 10.87 0.428
08:42 1008 29.77 837 24.72 10.5 51 70 5.3 41.5 10.88 0.428
08:43 1008 29.77 837 24.72 10.6 51.1 70 5.4 41.8 10.92 0.43
08:44 1008 29.77 837 24.72 10.7 51.2 70 5.4 41.8 10.93 0.43
08:45 1008 29.77 837 24.72 10.7 51.2 72 5.8 42.4 11.03 0.434
08:46 1008 29.77 837 24.72 10.7 51.3 69 5.2 41.4 11.12 0.438
08:47 1008 29.77 837 24.72 10.9 51.5 69 5.4 41.8 11.17 0.44
08:48 1008 29.77 837 24.72 11 51.7 68 5.3 41.5 11.25 0.443
08:49 1008 29.77 837 24.72 11 51.7 68 5.4 41.7 11.26 0.443
08:50 1008 29.77 837 24.72 10.9 51.6 68 5.3 41.5 11.16 0.439
08:51 1008 29.77 837 24.72 10.7 51.2 71 5.7 42.3 10.99 0.433
08:52 1008 29.77 837 24.72 10.6 51 70 5.4 41.6 10.95 0.431
08:53 1008 29.77 837 24.72 10.5 50.9 72 5.8 42.4 10.83 0.426
08:54 1008 29.77 837 24.72 10.5 50.8 71 5.5 41.8 10.81 0.426
08:55 1008 29.77 837 24.72 10.4 50.7 70 5.2 41.4 10.76 0.424
08:56 1008 29.77 837 24.72 10.3 50.6 72 5.5 41.9 10.7 0.421
08:57 1008 29.77 837 24.72 10.3 50.5 72 5.4 41.8 10.73 0.422
08:58 1008 29.77 837 24.72 10.3 50.6 71 5.3 41.5 10.73 0.422
08:59 1008 29.77 837 24.72 10.3 50.5 71 5.3 41.6 10.67 0.42
09:00 1008 29.77 837 24.72 10.3 50.5 71 5.2 41.4 10.69 0.421
09:01 1008 29.77 837 24.72 10.3 50.5 71 5.2 41.4 10.69 0.421
09:02 1008 29.77 837 24.72 10.3 50.5 72 5.5 41.9 10.7 0.421
09:03 1008 29.77 837 24.72 10.3 50.6 70 5.1 41.1 10.74 0.423
09:04 1008 29.77 837 24.72 10.3 50.5 71 5.3 41.5 10.69 0.421
09:05 1008 29.77 837 24.72 10.3 50.5 71 5.3 41.5 10.7 0.421
09:06 1008 29.77 837 24.72 10.2 50.4 72 5.4 41.7 10.67 0.42
09:07 1008 29.77 837 24.72 10.3 50.5 71 5.3 41.5 10.69 0.421
09:08 1008 29.77 837 24.72 10.3 50.5 70 5.1 41.2 10.67 0.42
09:09 1008 29.77 837 24.72 10.3 50.5 72 5.5 41.9 10.67 0.42
09:10 1008 29.77 837 24.72 10.4 50.6 70 5.2 41.4 10.77 0.424
09:11 1008 29.77 837 24.72 10.4 50.7 70 5.3 41.5 10.78 0.424
09:12 1008 29.77 837 24.72 10.4 50.8 71 5.4 41.7 10.84 0.427
09:13 1008 29.77 837 24.72 10.6 51.1 69 5.3 41.5 11.06 0.435
09:14 1008 29.77 837 24.72 10.8 51.4 69 5.4 41.8 11.19 0.441
09:15 1008 29.77 837 24.72 10.9 51.7 72 6.1 42.9 11.37 0.448
09:16 1008 29.77 837 24.72 11.2 52.1 69 5.7 42.3 11.57 0.456
09:17 1008 29.77 837 24.72 11.4 52.5 66 5.4 41.6 11.81 0.465
09:18 1008 29.77 837 24.72 11.3 52.4 66 5.3 41.6 11.73 0.462
09:19 1008 29.77 837 24.72 11.1 52.1 68 5.4 41.7 11.55 0.455
09:20 1008 29.77 837 24.72 11.1 51.9 68 5.4 41.8 11.48 0.452
09:21 1008 29.77 837 24.72 11 51.8 67 5.1 41.1 11.49 0.452
09:22 1008 29.77 837 24.72 11.1 51.9 70 5.9 42.6 11.48 0.452
09:23 1008 29.77 837 24.72 11.2 52.1 68 5.4 41.8 11.66 0.459
09:24 1008 29.77 837 24.72 11.4 52.4 67 5.4 41.8 11.75 0.463
09:25 1008 29.77 837 24.72 11.5 52.6 66 5.4 41.7 11.92 0.469
09:26 1008 29.77 837 24.72 11.6 52.9 65 5.2 41.3 12.02 0.473
09:27 1008 29.77 837 24.72 11.6 52.9 67 5.7 42.3 12.1 0.476
09:28 1008 29.77 837 24.72 11.7 53.1 64 5.2 41.3 12.24 0.482
09:29 1008 29.77 837 24.72 11.9 53.3 62 4.8 40.6 12.32 0.485
09:30 1008 29.77 837 24.72 11.9 53.4 62 5 40.9 12.26 0.483
09:31 1008 29.77 837 24.72 11.8 53.3 61 4.6 40.3 12.24 0.482
09:32 1008 29.77 837 24.72 11.9 53.4 63 5.1 41.3 12.36 0.487
09:33 1008 29.77 837 24.72 12.1 53.7 62 5.1 41.2 12.53 0.493
09:34 1008 29.77 837 24.72 12.1 53.8 61 5 40.9 12.58 0.495
09:35 1008 29.77 837 24.72 12.1 53.8 63 5.4 41.6 12.56 0.494
09:36 1008 29.77 837 24.72 12.1 53.8 63 5.3 41.6 12.58 0.495
09:37 1008 29.77 837 24.72 12.1 53.9 62 5.2 41.4 12.56 0.494
09:38 1008 29.77 837 24.72 12.1 53.7 61 4.7 40.5 12.51 0.493
09:39 1008 29.77 837 24.72 12.1 53.7 63 5.2 41.4 12.48 0.491
09:40 1008 29.77 837 24.72 12 53.6 61 4.7 40.4 12.4 0.488
09:41 1008 29.77 837 24.72 12 53.6 62 5 41.1 12.38 0.487
09:42 1008 29.77 837 24.72 12.1 53.8 60 4.5 40.2 12.49 0.492
09:43 1008 29.77 837 24.72 12.2 54 62 5.1 41.2 12.57 0.495
09:44 1008 29.77 837 24.72 12.3 54.2 61 5 41.1 12.72 0.501
09:45 1008 29.77 837 24.72 12.5 54.5 61 5.1 41.2 12.86 0.506
09:46 1008 29.77 837 24.72 12.6 54.7 60 5.1 41.2 12.92 0.509
09:47 1008 29.77 837 24.72 12.6 54.6 61 5.3 41.5 12.87 0.507
09:48 1008 29.77 837 24.72 12.5 54.5 61 5.3 41.5 12.84 0.506
09:49 1008 29.77 837 24.72 12.5 54.4 63 5.6 42.1 12.81 0.504
09:50 1008 29.77 837 24.72 12.5 54.4 62 5.4 41.8 12.86 0.506
09:51 1008 29.77 837 24.72 12.4 54.4 59 4.7 40.5 12.82 0.505
09:52 1008 29.77 837 24.72 12.4 54.2 59 4.5 40.2 12.7 0.5
09:53 1008 29.77 837 24.72 12.3 54.1 60 4.8 40.6 12.53 0.493
09:54 1008 29.77 837 24.72 12.2 53.9 62 5.3 41.5 12.49 0.492
09:55 1008 29.77 837 24.72 12.1 53.9 62 5.1 41.2 12.48 0.491
09:56 1008 29.77 837 24.72 12.1 53.8 60 4.8 40.6 12.43 0.489
09:57 1008 29.77 837 24.72 12.1 53.7 62 5 40.9 12.36 0.487
09:58 1008 29.77 837 24.72 12 53.5 61 4.6 40.4 12.3 0.484
09:59 1008 29.77 837 24.72 11.9 53.4 61 4.6 40.3 12.26 0.483
10:00 1008 29.77 837 24.72 11.9 53.4 61 4.7 40.4 12.22 0.481
10:01 1008 29.77 837 24.72 11.9 53.4 60 4.4 39.9 12.21 0.481
10:02 1008 29.77 837 24.72 12 53.5 60 4.6 40.2 12.28 0.483
10:03 1008 29.77 837 24.72 12.1 53.7 59 4.4 39.9 12.39 0.488
10:04 1008 29.77 837 24.72 12.2 53.9 60 4.7 40.4 12.53 0.493
10:05 1008 29.77 837 24.72 12.3 54.2 57 4.2 39.5 12.64 0.498
10:06 1008 29.77 837 24.72 12.3 54.1 59 4.6 40.3 12.62 0.497
10:07 1008 29.77 837 24.72 12.3 54.2 60 4.8 40.6 12.65 0.498
10:08 1008 29.77 837 24.72 12.4 54.4 60 4.9 40.7 12.74 0.502
10:09 1008 29.77 837 24.72 12.5 54.5 59 4.7 40.5 12.85 0.506
10:10 1008 29.77 837 24.72 12.5 54.5 58 4.6 40.3 12.79 0.504
10:11 1008 29.77 837 24.72 12.4 54.3 59 4.7 40.4 12.74 0.502
10:12 1008 29.77 837 24.72 12.4 54.3 60 4.9 40.7 12.75 0.502
10:13 1008 29.77 837 24.72 12.4 54.4 62 5.3 41.6 12.86 0.506
10:14 1008 29.77 837 24.72 12.6 54.6 60 4.9 40.9 12.97 0.511
10:15 1008 29.77 837 24.72 12.6 54.6 60 5 40.9 12.95 0.51
10:16 1008 29.77 837 24.72 12.6 54.8 62 5.7 42.2 13.02 0.513
10:17 1008 29.77 837 24.72 12.7 54.8 61 5.3 41.6 13.09 0.515
10:18 1008 29.77 837 24.72 12.8 55 58 4.7 40.5 13.21 0.52
10:19 1008 29.77 837 24.72 12.9 55.1 61 5.7 42.2 13.29 0.523
10:20 1008 29.77 837 24.72 12.9 55.2 59 5.1 41.2 13.34 0.525
10:21 1008 29.77 837 24.72 13 55.4 58 4.9 40.8 13.33 0.525
10:22 1008 29.77 837 24.72 13 55.3 57 4.6 40.3 13.31 0.524
10:23 1008 29.77 837 24.72 13 55.5 57 4.8 40.7 13.35 0.526
10:24 1008 29.77 837 24.72 13 55.5 56 4.5 40.2 13.34 0.525
10:25 1008 29.77 837 24.72 13 55.4 56 4.6 40.2 13.25 0.522
10:26 1008 29.77 837 24.72 12.9 55.2 57 4.8 40.6 13.18 0.519
10:27 1008 29.77 837 24.72 12.9 55.3 59 5.1 41.1 13.33 0.525
10:28 1008 29.77 837 24.72 13.1 55.5 58 4.9 40.9 13.43 0.529
10:29 1008 29.77 837 24.72 13.1 55.7 60 5.7 42.2 13.44 0.529
10:30 1008 29.77 837 24.72 13.2 55.8 56 4.8 40.6 13.48 0.531
10:31 1008 29.77 837 24.72 13.2 55.7 59 5.4 41.8 13.44 0.529
10:32 1008 29.77 837 24.72 13.2 55.7 56 4.5 40.2 13.46 0.53
10:33 1008 29.77 837 24.72 13.1 55.5 56 4.6 40.3 13.3 0.524
10:34 1008 29.77 837 24.72 13.1 55.5 57 4.7 40.5 13.36 0.526
10:35 1008 29.77 837 24.72 13.2 55.8 56 4.8 40.6 13.49 0.531
10:36 1008 29.77 837 24.72 13.2 55.8 55 4.5 40.1 13.4 0.528
10:37 1008 29.77 837 24.72 13.2 55.8 56 4.7 40.5 13.4 0.528
10:38 1008 29.77 837 24.72 13.3 55.9 56 4.6 40.4 13.49 0.531
10:39 1008 29.77 837 24.72 13.3 56 57 5.1 41.2 13.52 0.532
10:40 1008 29.77 837 24.72 13.3 56 56 4.9 40.8 13.5 0.531
10:41 1008 29.77 837 24.72 13.4 56.1 57 5.2 41.3 13.55 0.533
10:42 1008 29.77 837 24.72 13.5 56.3 55 4.6 40.2 13.68 0.539
10:43 1008 29.77 837 24.72 13.6 56.5 55 4.9 40.8 13.73 0.541
10:44 1008 29.77 837 24.72 13.6 56.5 56 5 41 13.73 0.541
10:45 1008 29.77 837 24.72 13.7 56.7 56 5.1 41.2 13.91 0.548
10:46 1008 29.77 837 24.72 13.9 56.9 53 4.5 40.2 14.02 0.552
10:47 1008 29.77 837 24.72 13.9 57 52 4.4 39.9 14 0.551
10:48 1008 29.77 837 24.72 13.9 57.1 53 4.7 40.4 14.04 0.553
10:49 1008 29.77 837 24.72 14 57.2 52 4.4 39.9 14.09 0.555
10:50 1008 29.77 837 24.72 14.1 57.4 52 4.6 40.2 14.29 0.563
10:51 1008 29.77 837 24.72 14.2 57.6 55 5.2 41.4 14.39 0.567
10:52 1008 29.77 837 24.72 14.2 57.5 54 5 41 14.25 0.561
10:53 1008 29.77 837 24.72 14.1 57.3 51 4.2 39.5 14.08 0.554
10:54 1008 29.77 837 24.72 14.1 57.3 52 4.5 40 14.22 0.56
10:55 1008 29.77 837 24.72 14.2 57.5 52 4.6 40.2 14.34 0.565
10:56 1008 29.77 837 24.72 14.2 57.6 55 5.4 41.7 14.44 0.569
10:57 1008 29.77 837 24.72 14.3 57.7 53 4.8 40.7 14.34 0.565
10:58 1008 29.77 837 24.72 14.1 57.4 56 5.6 42.2 14.18 0.558
10:59 1008 29.77 837 24.72 14.1 57.4 56 5.5 41.9 14.25 0.561
11:00 1008 29.77 837 24.72 14.2 57.6 53 4.9 40.8 14.41 0.567
11:01 1008 29.77 837 24.72 14.3 57.7 55 5.5 42 14.42 0.568
11:02 1008 29.77 837 24.72 14.4 57.9 55 5.5 41.9 14.57 0.574
11:03 1008 29.77 837 24.72 14.4 57.9 54 5.4 41.7 14.49 0.57
11:04 1008 29.77 837 24.72 14.4 58 52 4.9 40.8 14.48 0.57
11:05 1008 29.77 837 24.72 14.4 57.8 52 4.7 40.4 14.45 0.569
11:06 1008 29.77 837 24.72 14.4 57.9 54 5.2 41.3 14.55 0.573
11:07 1008 29.77 837 24.72 14.5 58.1 53 5 41 14.66 0.577
11:08 1008 29.77 837 24.72 14.8 58.6 50 4.6 40.3 14.91 0.587
11:09 1008 29.77 837 24.72 14.9 58.7 51 4.8 40.6 14.94 0.588
11:10 1007 29.74 837 24.72 14.8 58.6 53 5.4 41.8 14.94 0.588
11:11 1007 29.74 837 24.72 14.9 58.8 49 4.4 39.9 14.99 0.59
11:12 1007 29.74 837 24.72 14.9 58.7 56 6.3 43.3 14.85 0.585
11:13 1007 29.74 837 24.72 14.8 58.7 51 4.8 40.7 14.8 0.583
11:14 1007 29.74 837 24.72 14.7 58.5 51 4.8 40.6 14.67 0.578
11:15 1007 29.74 837 24.72 14.7 58.4 51 4.8 40.6 14.67 0.578
11:16 1007 29.74 837 24.72 14.6 58.3 51 4.6 40.3 14.7 0.579
11:17 1007 29.74 837 24.72 14.7 58.4 52 4.8 40.7 14.86 0.585
11:18 1007 29.74 837 24.72 14.8 58.6 51 4.9 40.7 15.05 0.593
11:19 1007 29.74 837 24.72 14.9 58.7 52 5.2 41.3 14.88 0.586
11:20 1007 29.74 837 24.72 14.7 58.4 54 5.4 41.8 14.69 0.578
11:21 1007 29.74 837 24.72 14.5 58.2 55 5.7 42.3 14.64 0.576
11:22 1007 29.74 837 24.72 14.6 58.3 51 4.6 40.3 14.86 0.585
11:23 1007 29.74 837 24.72 14.6 58.3 52 4.8 40.7 14.87 0.585
11:24 1007 29.74 837 24.72 14.6 58.4 50 4.5 40 14.99 0.59
11:25 1007 29.74 837 24.72 14.8 58.7 52 5.1 41.1 15.23 0.6
11:26 1007 29.74 837 24.72 15.1 59.3 49 4.7 40.5 15.57 0.613
11:27 1007 29.74 837 24.72 15.4 59.8 49 4.9 40.9 15.82 0.623
11:28 1007 29.74 837 24.72 15.6 60 51 5.6 42.1 15.92 0.627
11:29 1007 29.74 837 24.72 15.6 60.2 49 5.2 41.3 16.01 0.63
11:30 1007 29.74 837 24.72 15.7 60.2 48 4.9 40.9 15.96 0.628
11:31 1007 29.74 837 24.72 15.6 60.1 48 4.9 40.8 15.93 0.627
11:32 1007 29.74 837 24.72 15.5 59.8 52 5.6 42.1 15.78 0.621
11:33 1007 29.74 837 24.72 15.5 59.9 51 5.6 42 15.78 0.621
11:34 1007 29.74 837 24.72 15.6 60 47 4.4 39.9 15.74 0.62
11:35 1007 29.74 837 24.72 15.7 60.2 48 4.9 40.9 15.79 0.622
11:36 1007 29.74 837 24.72 15.8 60.4 47 4.7 40.5 15.88 0.625
11:37 1007 29.74 837 24.72 15.8 60.4 55 6.9 44.5 15.81 0.622
11:38 1007 29.74 837 24.72 15.8 60.4 47 4.6 40.2 15.87 0.625
11:39 1007 29.74 837 24.72 15.6 60.1 49 4.9 40.9 15.62 0.615
11:40 1007 29.74 837 24.72 15.4 59.7 47 4.3 39.7 15.53 0.611
11:41 1007 29.74 837 24.72 15.3 59.6 49 4.7 40.5 15.52 0.611
11:42 1007 29.74 837 24.72 15.4 59.7 53 6 42.8 15.64 0.616
11:43 1007 29.74 837 24.72 15.6 60.1 52 5.9 42.7 15.82 0.623
11:44 1007 29.74 837 24.72 15.9 60.5 46 4.3 39.7 15.97 0.629
11:45 1007 29.74 836 24.69 15.8 60.4 46 4.4 39.9 15.68 0.617
11:46 1007 29.74 837 24.72 15.5 59.9 48 4.5 40.1 15.49 0.61
11:47 1007 29.74 837 24.72 15.5 59.8 48 4.5 40 15.52 0.611
11:48 1007 29.74 836 24.69 15.6 60.1 54 6.4 43.4 15.67 0.617
11:49 1007 29.74 836 24.69 15.7 60.3 48 4.9 40.8 15.8 0.622
11:50 1007 29.74 836 24.69 15.7 60.3 48 4.8 40.6 15.92 0.627
11:51 1007 29.74 836 24.69 15.8 60.5 48 5.1 41.1 16.07 0.633
11:52 1007 29.74 836 24.69 15.9 60.7 47 4.6 40.4 16.22 0.639
11:53 1007 29.74 836 24.69 15.9 60.5 46 4.5 40.1 16.18 0.637
11:54 1007 29.74 836 24.69 15.7 60.3 49 5 41 16.04 0.631
11:55 1007 29.74 836 24.69 15.5 59.8 47 4.3 39.8 15.87 0.625
11:56 1007 29.74 836 24.69 15.4 59.7 49 4.9 40.8 15.72 0.619
11:57 1007 29.74 836 24.69 15.3 59.5 51 5.3 41.6 15.56 0.613
11:58 1007 29.74 836 24.69 15.3 59.5 51 5.3 41.5 15.48 0.609
11:59 1007 29.74 836 24.69 15.3 59.5 50 5.1 41.1 15.56 0.613
12:00 1007 29.74 836 24.69 15.4 59.6 51 5.5 41.9 15.52 0.611
12:01 1007 29.74 836 24.69 15.3 59.6 49 4.9 40.9 15.52 0.611
12:02 1007 29.74 836 24.69 15.4 59.6 53 5.8 42.4 15.49 0.61
12:03 1007 29.74 836 24.69 15.3 59.6 49 4.9 40.7 15.42 0.607
12:04 1007 29.74 836 24.69 15.3 59.6 51 5.2 41.4 15.51 0.611
12:05 1007 29.74 836 24.69 15.4 59.8 50 5.1 41.1 15.65 0.616
12:06 1007 29.74 836 24.69 15.6 60.1 51 5.6 42.1 15.73 0.619
12:07 1007 29.74 836 24.69 15.5 59.9 49 5 41.1 15.62 0.615
12:08 1007 29.74 836 24.69 15.4 59.6 49 4.8 40.7 15.56 0.613
12:09 1007 29.74 836 24.69 15.3 59.6 51 5.4 41.8 15.49 0.61
12:10 1007 29.74 836 24.69 15.4 59.6 49 4.9 40.8 15.59 0.614
12:11 1007 29.74 836 24.69 15.4 59.8 49 4.8 40.6 15.61 0.615
12:12 1007 29.74 836 24.69 15.6 60 49 5 41 15.86 0.624
12:13 1007 29.74 836 24.69 15.7 60.3 49 5 41 16.06 0.632
12:14 1007 29.74 836 24.69 15.6 60.2 52 5.8 42.4 16.04 0.631
12:15 1007 29.74 836 24.69 15.6 60.2 51 5.6 42.1 15.92 0.627
12:16 1007 29.74 836 24.69 15.5 59.8 52 5.6 42.1 15.7 0.618
12:17 1007 29.74 836 24.69 15.4 59.7 52 5.8 42.4 15.68 0.617
12:18 1007 29.74 836 24.69 15.5 59.9 53 6 42.7 15.74 0.62
12:19 1007 29.74 836 24.69 15.6 60 50 5.3 41.5 15.73 0.619
12:20 1007 29.74 836 24.69 15.5 59.9 52 5.9 42.6 15.64 0.616
12:21 1007 29.74 836 24.69 15.5 59.9 51 5.5 41.9 15.65 0.616
12:22 1007 29.74 836 24.69 15.5 59.8 54 6.2 43.1 15.62 0.615
12:23 1007 29.74 836 24.69 15.6 60 52 5.9 42.7 15.77 0.621
12:24 1007 29.74 836 24.69 15.7 60.2 48 4.8 40.7 15.95 0.628
12:25 1007 29.74 836 24.69 15.6 60.1 54 6.4 43.6 15.84 0.624
12:26 1007 29.74 836 24.69 15.8 60.4 54 6.5 43.7 16.07 0.633
12:27 1007 29.74 836 24.69 16 60.8 51 6.1 42.9 16.24 0.639
12:28 1007 29.74 836 24.69 16 60.9 50 5.7 42.2 16.25 0.64
12:29 1007 29.74 836 24.69 15.9 60.7 50 5.5 41.9 16.17 0.637
12:30 1007 29.74 836 24.69 15.8 60.5 49 5.1 41.2 16.09 0.633
12:31 1007 29.74 836 24.69 15.7 60.3 52 5.9 42.5 16.09 0.633
12:32 1007 29.74 836 24.69 15.9 60.6 49 5.4 41.8 16.28 0.641
12:33 1007 29.74 836 24.69 16.1 61 47 5 41 16.47 0.648
12:34 1007 29.74 836 24.69 16 60.8 50 5.6 42 16.39 0.645
12:35 1007 29.74 836 24.69 15.9 60.6 54 6.6 43.8 16.33 0.643
12:36 1007 29.74 836 24.69 16 60.7 48 5.1 41.2 16.3 0.642
12:37 1007 29.74 836 24.69 16 60.9 46 4.6 40.3 16.28 0.641
12:38 1007 29.74 836 24.69 16 60.9 51 5.9 42.6 16.29 0.641
12:39 1007 29.74 836 24.69 16.2 61.1 49 5.6 42 16.39 0.645
12:40 1007 29.74 836 24.69 16.2 61.2 48 5.3 41.5 16.35 0.644
12:41 1007 29.74 836 24.69 16.2 61.2 47 5.1 41.2 16.43 0.647
12:42 1006 29.71 836 24.69 16.2 61.2 49 5.5 42 16.51 0.65
12:43 1006 29.71 836 24.69 16.3 61.3 50 6 42.9 16.57 0.652
12:44 1006 29.71 836 24.69 16.2 61.2 49 5.5 41.9 16.62 0.654
12:45 1006 29.71 836 24.69 16.2 61.2 47 4.9 40.9 16.61 0.654
12:46 1006 29.71 836 24.69 16.3 61.3 47 5.2 41.3 16.63 0.655
12:47 1006 29.71 836 24.69 16.3 61.4 48 5.3 41.5 16.6 0.654
12:48 1006 29.71 836 24.69 16.3 61.4 49 5.7 42.2 16.63 0.655
12:49 1006 29.71 836 24.69 16.3 61.4 49 5.6 42.1 16.54 0.651
12:50 1006 29.71 836 24.69 16.3 61.4 48 5.6 42 16.56 0.652
12:51 1006 29.71 836 24.69 16.3 61.3 48 5.3 41.6 16.6 0.654
12:52 1006 29.71 836 24.69 16.3 61.4 48 5.4 41.8 16.7 0.657
12:53 1006 29.71 836 24.69 16.5 61.6 50 6 42.8 16.9 0.665
12:54 1006 29.71 836 24.69 16.5 61.8 48 5.6 42.2 17.02 0.67
12:55 1006 29.71 836 24.69 16.7 62 49 6 42.8 16.98 0.669
12:56 1006 29.71 836 24.69 16.6 61.9 49 5.9 42.6 16.81 0.662
12:57 1006 29.71 836 24.69 16.4 61.6 46 5 41 16.64 0.655
12:58 1006 29.71 836 24.69 16.3 61.3 47 4.9 40.9 16.51 0.65
12:59 1006 29.71 836 24.69 16.1 61 50 5.7 42.2 16.29 0.641
13:00 1006 29.71 836 24.69 16 60.8 49 5.3 41.6 16.18 0.637
13:01 1006 29.71 836 24.69 15.9 60.7 48 5 41.1 16.18 0.637
13:02 1006 29.71 835 24.66 16 60.8 47 4.9 40.8 16.28 0.641
13:03 1006 29.71 835 24.66 16.1 61 48 5.1 41.2 16.3 0.642
13:04 1006 29.71 835 24.66 16.2 61.1 49 5.5 42 16.42 0.646
13:05 1006 29.71 835 24.66 16.3 61.3 46 4.7 40.5 16.58 0.653
13:06 1006 29.71 835 24.66 16.5 61.7 46 5 41 16.73 0.659
13:07 1006 29.71 835 24.66 16.6 61.8 45 4.7 40.5 16.88 0.665
13:08 1006 29.71 835 24.66 16.5 61.7 46 4.8 40.7 16.87 0.664
13:09 1006 29.71 835 24.66 16.5 61.6 46 5 41 16.89 0.665
13:10 1006 29.71 835 24.66 16.5 61.6 48 5.4 41.7 16.96 0.668
13:11 1006 29.71 835 24.66 16.6 61.8 52 6.8 44.2 17.12 0.674
13:12 1006 29.71 835 24.66 16.8 62.3 46 5.4 41.7 17.45 0.687
13:13 1006 29.71 835 24.66 17 62.6 45 5 41 17.6 0.693
13:14 1006 29.71 835 24.66 17.2 63 48 6.3 43.4 17.86 0.703
13:15 1006 29.71 835 24.66 17.5 63.5 44 5.2 41.4 18.06 0.711
13:16 1006 29.71 835 24.66 17.5 63.4 49 6.7 44.1 18.03 0.71
13:17 1006 29.71 835 24.66 17.6 63.6 45 5.5 41.9 17.97 0.707
13:18 1006 29.71 835 24.66 17.5 63.6 45 5.5 41.8 17.73 0.698
13:19 1006 29.71 835 24.66 17.3 63.1 44 5.2 41.3 17.4 0.685
13:20 1006 29.71 835 24.66 17.3 63.1 45 5.4 41.7 17.43 0.686
13:21 1006 29.71 835 24.66 17.3 63.2 47 6.1 43 17.54 0.691
13:22 1006 29.71 835 24.66 17.4 63.3 44 5.2 41.4 17.58 0.692
13:23 1006 29.71 835 24.66 17.4 63.4 47 6 42.8 17.59 0.693
13:24 1006 29.71 835 24.66 17.3 63.2 45 5.4 41.8 17.39 0.685
13:25 1006 29.71 835 24.66 17.2 63 45 5.2 41.3 17.35 0.683
13:26 1006 29.71 835 24.66 17 62.7 44 4.9 40.7 17.19 0.677
13:27 1006 29.71 835 24.66 16.9 62.4 45 5 41 17.1 0.673
13:28 1006 29.71 835 24.66 16.9 62.3 51 6.7 44 17.16 0.676
13:29 1006 29.71 835 24.66 17 62.6 48 6.2 43.1 17.24 0.679
13:30 1006 29.71 835 24.66 17 62.6 47 5.7 42.2 17.28 0.68
13:31 1006 29.71 835 24.66 17.1 62.7 46 5.6 42.1 17.35 0.683
13:32 1006 29.71 835 24.66 17.2 62.9 44 4.9 40.8 17.34 0.683
13:33 1006 29.71 835 24.66 17.1 62.9 46 5.6 42.1 17.34 0.683
13:34 1006 29.71 835 24.66 17.2 63 47 5.9 42.7 17.4 0.685
13:35 1006 29.71 835 24.66 17.3 63.1 47 6 42.9 17.5 0.689
13:36 1006 29.71 835 24.66 17.4 63.2 46 5.7 42.3 17.56 0.691
13:37 1006 29.71 835 24.66 17.2 63 44 4.9 40.8 17.44 0.687
13:38 1006 29.71 835 24.66 16.9 62.5 45 5.1 41.3 17.36 0.683
13:39 1006 29.71 835 24.66 16.8 62.3 47 5.6 42.2 17.43 0.686
13:40 1006 29.71 835 24.66 17.1 62.7 52 7.3 45.2 17.63 0.694
13:41 1006 29.71 835 24.66 17.2 63 44 5.1 41.2 17.75 0.699
13:42 1006 29.71 835 24.66 17.3 63.1 45 5.5 41.9 17.69 0.696
13:43 1006 29.71 835 24.66 17.2 62.9 45 5.4 41.7 17.64 0.694
13:44 1006 29.71 835 24.66 17.2 63 48 6.2 43.2 17.73 0.698
13:45 1006 29.71 835 24.66 17.3 63.2 45 5.4 41.8 17.86 0.703
13:46 1006 29.71 835 24.66 17.3 63.1 44 5 40.9 17.83 0.702
13:47 1006 29.71 835 24.66 17.3 63.1 45 5.3 41.6 17.81 0.701
13:48 1006 29.71 835 24.66 17.3 63.1 45 5.3 41.5 17.82 0.702
13:49 1006 29.71 835 24.66 17.4 63.3 47 6.1 42.9 17.91 0.705
13:50 1006 29.71 835 24.66 17.6 63.6 45 5.7 42.2 18.11 0.713
13:51 1006 29.71 835 24.66 17.6 63.7 43 5 41.1 18 0.709
13:52 1006 29.71 835 24.66 17.4 63.4 48 6.6 43.8 17.72 0.698
13:53 1005 29.68 835 24.66 17.4 63.4 44 5.1 41.2 17.75 0.699
13:54 1006 29.71 835 24.66 17.5 63.4 47 6.1 43 17.77 0.7
13:55 1006 29.71 835 24.66 17.5 63.5 47 6.1 43 17.89 0.704
13:56 1006 29.71 835 24.66 17.6 63.7 47 6.4 43.5 17.94 0.706
13:57 1005 29.68 835 24.66 17.6 63.7 47 6.2 43.1 17.85 0.703
13:58 1005 29.68 835 24.66 17.6 63.7 44 5.3 41.5 17.81 0.701
13:59 1005 29.68 835 24.66 17.6 63.7 46 6.1 43 17.74 0.698
14:00 1005 29.68 835 24.66 17.6 63.7 48 6.5 43.6 17.77 0.7
14:01 1005 29.68 835 24.66 17.4 63.3 45 5.4 41.7 17.52 0.69
14:02 1006 29.71 835 24.66 17.1 62.8 45 5.2 41.4 17.27 0.68
14:03 1005 29.68 835 24.66 17 62.6 47 5.9 42.6 17.22 0.678
14:04 1005 29.68 835 24.66 17.1 62.8 47 5.9 42.7 17.4 0.685
14:05 1005 29.68 835 24.66 17.3 63.2 44 5.2 41.3 17.61 0.693
14:06 1005 29.68 835 24.66 17.3 63.2 49 6.6 43.8 17.65 0.695
14:07 1005 29.68 835 24.66 17.5 63.4 49 6.7 44.1 17.89 0.704
14:08 1005 29.68 835 24.66 17.7 63.8 43 5.1 41.1 17.99 0.708
14:09 1005 29.68 835 24.66 17.8 64 43 5 41.1 18.06 0.711
14:10 1005 29.68 835 24.66 17.9 64.2 46 6.4 43.5 18.16 0.715
14:11 1005 29.68 835 24.66 18.1 64.6 43 5.3 41.6 18.38 0.724
14:12 1005 29.68 835 24.66 18.3 64.9 42 5.3 41.5 18.51 0.729
14:13 1005 29.68 835 24.66 18.4 65.1 42 5.5 41.8 18.61 0.733
14:14 1005 29.68 835 24.66 18.6 65.5 43 5.7 42.3 18.84 0.742
14:15 1005 29.68 835 24.66 18.6 65.5 44 6.1 43 18.76 0.739
14:16 1005 29.68 835 24.66 18.5 65.3 40 4.9 40.9 18.57 0.731
14:17 1005 29.68 835 24.66 18.3 65 41 5.1 41.2 18.34 0.722
14:18 1005 29.68 834 24.63 18.3 64.9 48 7.1 44.8 18.44 0.726
14:19 1005 29.68 834 24.63 18.5 65.3 44 6.2 43.1 18.66 0.735
14:20 1005 29.68 834 24.63 18.6 65.4 45 6.5 43.8 18.8 0.74
14:21 1005 29.68 834 24.63 18.6 65.6 44 6.2 43.1 18.93 0.745
14:22 1005 29.68 834 24.63 18.7 65.6 41 5.4 41.8 18.89 0.744
14:23 1005 29.68 834 24.63 18.6 65.5 40 5 41.1 18.81 0.741
14:24 1005 29.68 834 24.63 18.5 65.2 41 5 41 18.53 0.73
14:25 1005 29.68 834 24.63 18.2 64.8 42 5.1 41.2 18.38 0.724
14:26 1005 29.68 834 24.63 18.1 64.6 43 5.5 42 18.24 0.718
14:27 1005 29.68 834 24.63 18 64.3 46 6.3 43.3 18.07 0.711
14:28 1005 29.68 834 24.63 17.9 64.2 44 5.6 42.1 18.16 0.715
14:29 1005 29.68 834 24.63 17.9 64.2 44 5.6 42.1 18.15 0.715
14:30 1005 29.68 834 24.63 17.9 64.3 46 6.2 43.1 18.12 0.713
14:31 1005 29.68 834 24.63 18.1 64.5 44 5.7 42.2 18.39 0.724
14:32 1005 29.68 834 24.63 18.1 64.6 44 5.8 42.5 18.36 0.723
14:33 1005 29.68 834 24.63 18 64.4 42 5.1 41.1 18.24 0.718
14:34 1005 29.68 834 24.63 17.9 64.2 45 6 42.8 18.07 0.711
14:35 1005 29.68 834 24.63 17.9 64.2 47 6.4 43.6 18.2 0.717
14:36 1005 29.68 834 24.63 18.1 64.6 44 5.7 42.3 18.35 0.722
14:37 1005 29.68 834 24.63 18.2 64.8 42 5.2 41.3 18.47 0.727
14:38 1005 29.68 834 24.63 18.4 65.2 42 5.2 41.4 18.68 0.735
14:39 1005 29.68 834 24.63 18.6 65.4 41 5.3 41.6 18.82 0.741
14:40 1005 29.68 834 24.63 18.5 65.3 42 5.5 41.9 18.8 0.74
14:41 1005 29.68 834 24.63 18.3 64.9 41 4.9 40.9 18.59 0.732
14:42 1005 29.68 834 24.63 18.2 64.7 43 5.6 42 18.63 0.733
14:43 1005 29.68 834 24.63 18.3 65 44 5.9 42.7 18.84 0.742
14:44 1005 29.68 834 24.63 18.3 65 42 5.3 41.5 18.8 0.74
14:45 1005 29.68 834 24.63 18.1 64.6 42 5 41 18.6 0.732
14:46 1005 29.68 834 24.63 18 64.5 42 5 41 18.58 0.731
14:47 1005 29.68 834 24.63 18.2 64.7 43 5.5 41.9 18.76 0.739
14:48 1005 29.68 834 24.63 18.3 65 45 6.4 43.5 18.83 0.741
14:49 1005 29.68 834 24.63 18.4 65.1 41 4.9 40.9 18.84 0.742
14:50 1005 29.68 834 24.63 18.3 65 41 4.8 40.7 18.82 0.741
14:51 1005 29.68 834 24.63 18.2 64.7 43 5.6 42 18.79 0.74
14:52 1005 29.68 834 24.63 18.2 64.7 41 4.8 40.6 18.62 0.733
14:53 1005 29.68 834 24.63 18.2 64.7 44 6 42.8 18.65 0.734
14:54 1005 29.68 834 24.63 18.3 65 40 4.6 40.2 18.91 0.744
14:55 1005 29.68 834 24.63 18.3 65 40 4.6 40.3 18.9 0.744
14:56 1005 29.68 834 24.63 18.3 65 40 4.8 40.6 18.83 0.741
14:57 1005 29.68 834 24.63 18.2 64.8 44 5.8 42.5 18.81 0.741
14:58 1005 29.68 834 24.63 18.3 64.9 44 6 42.7 18.91 0.744
14:59 1005 29.68 834 24.63 18.5 65.2 41 5.3 41.5 19.14 0.754
15:00 1005 29.68 834 24.63 18.7 65.6 43 6 42.8 19.19 0.756
15:01 1005 29.68 834 24.63 18.7 65.7 44 6.5 43.6 19.26 0.758
15:02 1005 29.68 834 24.63 18.9 66.1 39 4.8 40.7 19.46 0.766
15:03 1005 29.68 834 24.63 18.9 66.1 43 6.4 43.5 19.42 0.765
15:04 1005 29.68 834 24.63 18.9 65.9 38 4.4 39.8 19.39 0.763
15:05 1005 29.68 834 24.63 18.8 65.9 41 5.5 42 19.29 0.759
15:06 1005 29.68 834 24.63 18.7 65.7 44 6.4 43.6 19.23 0.757
15:07 1005 29.68 834 24.63 18.7 65.6 39 4.7 40.5 19.16 0.754
15:08 1005 29.68 834 24.63 18.7 65.6 37 3.9 39 19.01 0.748
15:09 1005 29.68 834 24.63 18.6 65.5 40 5 41.1 18.92 0.745
15:10 1005 29.68 834 24.63 18.6 65.4 39 4.6 40.3 19.03 0.749
15:11 1005 29.68 834 24.63 18.5 65.3 37 3.6 38.4 19 0.748
15:12 1005 29.68 834 24.63 18.4 65.2 40 4.7 40.4 19 0.748
15:13 1005 29.68 834 24.63 18.5 65.3 39 4.6 40.2 19.12 0.753
15:14 1005 29.68 834 24.63 18.7 65.7 39 4.6 40.3 19.36 0.762
15:15 1005 29.68 834 24.63 18.9 66.1 38 4.4 39.9 19.59 0.771
15:16 1005 29.68 834 24.63 19.1 66.4 36 4 39.2 19.68 0.775
15:17 1005 29.68 834 24.63 19.1 66.5 38 4.5 40.1 19.63 0.773
15:18 1005 29.68 834 24.63 19.1 66.3 35 3.5 38.3 19.64 0.773
15:19 1005 29.68 834 24.63 18.9 66.1 37 4.1 39.4 19.61 0.772
15:20 1005 29.68 834 24.63 19 66.1 36 3.8 38.9 19.65 0.774
15:21 1005 29.68 834 24.63 18.9 66.1 38 4.4 39.9 19.56 0.77
15:22 1005 29.68 834 24.63 18.8 65.9 40 5 41.1 19.44 0.765
15:23 1005 29.68 834 24.63 18.7 65.6 37 4 39.2 19.32 0.761
15:24 1005 29.68 834 24.63 18.6 65.5 37 3.9 39.1 19.31 0.76
15:25 1005 29.68 834 24.63 18.7 65.7 41 5.4 41.7 19.32 0.761
15:26 1005 29.68 834 24.63 18.8 65.9 36 3.5 38.3 19.24 0.757
15:27 1005 29.68 834 24.63 18.8 65.8 37 3.7 38.7 19.03 0.749
15:28 1005 29.68 834 24.63 18.8 65.8 41 5.4 41.8 19.1 0.752
15:29 1005 29.68 834 24.63 18.9 65.9 37 4 39.3 19.17 0.755
15:30 1005 29.68 834 24.63 18.8 65.8 38 4.2 39.5 19.06 0.75
15:31 1005 29.68 834 24.63 18.7 65.6 35 3.2 37.8 19.02 0.749
15:32 1005 29.68 834 24.63 18.6 65.4 38 4 39.1 18.84 0.742
15:33 1004 29.65 834 24.63 18.5 65.2 43 5.8 42.4 18.81 0.741
15:34 1004 29.65 834 24.63 18.4 65 39 4.4 40 18.79 0.74
15:35 1004 29.65 834 24.63 18.2 64.8 40 4.7 40.4 18.76 0.739
15:36 1004 29.65 834 24.63 18.3 64.9 40 4.5 40.1 18.73 0.737
15:37 1004 29.65 834 24.63 18.1 64.6 40 4.6 40.3 18.59 0.732
15:38 1004 29.65 834 24.63 18 64.3 40 4.2 39.5 18.45 0.726
15:39 1004 29.65 834 24.63 17.9 64.1 37 3.2 37.8 18.34 0.722
15:40 1004 29.65 834 24.63 17.8 64.1 41 4.4 39.8 18.28 0.72
15:41 1004 29.65 834 24.63 17.8 64 39 3.8 38.8 18.21 0.717
15:42 1004 29.65 834 24.63 17.7 63.8 41 4.4 39.9 18.13 0.714
15:43 1004 29.65 834 24.63 17.6 63.7 44 5.3 41.6 18.04 0.71
15:44 1004 29.65 834 24.63 17.5 63.6 45 5.7 42.2 18.02 0.709
15:45 1004 29.65 833 24.6 17.4 63.3 42 4.6 40.2 17.82 0.702
15:46 1004 29.65 833 24.6 17.2 62.9 46 5.5 42 17.58 0.692
15:47 1004 29.65 834 24.63 17 62.5 50 6.6 43.9 17.37 0.684
15:48 1005 29.68 834 24.63 16.6 61.9 51 6.6 43.9 16.92 0.666
15:49 1004 29.65 834 24.63 16.4 61.4 53 6.9 44.4 16.7 0.657
15:50 1005 29.68 834 24.63 16.1 60.9 56 7.4 45.3 16.32 0.643
15:51 1005 29.68 834 24.63 15.8 60.4 53 6.3 43.4 16.12 0.635
15:52 1005 29.68 834 24.63 15.5 59.9 55 6.5 43.7 15.82 0.623
15:53 1004 29.65 834 24.63 15.2 59.4 54 6.1 42.9 15.52 0.611
15:54 1005 29.68 834 24.63 14.9 58.8 57 6.4 43.6 15.18 0.598
15:55 1005 29.68 834 24.63 14.5 58.1 60 7 44.5 14.77 0.581
15:56 1005 29.68 834 24.63 14.1 57.3 61 6.7 44.1 14.38 0.566
15:57 1005 29.68 834 24.63 13.8 56.9 61 6.6 43.8 14.05 0.553
15:58 1005 29.68 834 24.63 13.6 56.4 61 6.2 43.1 13.83 0.544
15:59 1005 29.68 834 24.63 13.5 56.2 60 5.9 42.5 13.78 0.543
16:00 1005 29.68 834 24.63 13.4 56.2 61 6.1 43 13.74 0.541
16:01 1005 29.68 834 24.63 13.2 55.7 63 6.4 43.5 13.52 0.532
16:02 1005 29.68 834 24.63 12.9 55.2 62 5.9 42.6 13.24 0.521
16:03 1005 29.68 834 24.63 12.7 54.9 63 5.9 42.6 13.09 0.515
16:04 1005 29.68 834 24.63 12.6 54.7 63 5.7 42.3 12.98 0.511
16:05 1005 29.68 834 24.63 12.6 54.7 62 5.7 42.2 12.98 0.511
16:06 1005 29.68 834 24.63 12.7 54.9 60 5.3 41.5 13.09 0.515
16:07 1005 29.68 834 24.63 12.9 55.1 66 6.6 43.9 13.23 0.521
16:08 1005 29.68 834 24.63 12.9 55.2 65 6.5 43.7 13.23 0.521
16:09 1005 29.68 834 24.63 12.8 55 63 6.1 43 13.18 0.519
16:10 1005 29.68 834 24.63 12.8 55 66 6.6 43.8 13.17 0.519
16:11 1005 29.68 834 24.63 12.8 55 65 6.5 43.8 13.27 0.522
16:12 1005 29.68 834 24.63 13 55.4 60 5.4 41.7 13.41 0.528
16:13 1005 29.68 834 24.63 13.2 55.7 56 4.6 40.3 13.56 0.534
16:14 1005 29.68 834 24.63 13.3 56 55 4.6 40.4 13.74 0.541
16:15 1005 29.68 834 24.63 13.3 55.9 57 5.1 41.1 13.66 0.538
16:16 1005 29.68 834 24.63 13.1 55.5 60 5.6 42.1 13.47 0.53
16:17 1005 29.68 834 24.63 12.9 55.1 61 5.6 42 13.29 0.523
16:18 1005 29.68 834 24.63 12.8 55 63 5.9 42.6 13.19 0.519
16:19 1005 29.68 834 24.63 12.8 55 60 5.3 41.5 13.22 0.52
16:20 1005 29.68 834 24.63 12.9 55.2 62 5.9 42.6 13.32 0.524
16:21 1005 29.68 834 24.63 13 55.4 60 5.3 41.6 13.47 0.53
16:22 1005 29.68 834 24.63 13.1 55.5 55 4.3 39.7 13.53 0.533
16:23 1005 29.68 834 24.63 13.4 56 54 4.4 39.9 13.82 0.544
16:24 1005 29.68 834 24.63 13.6 56.5 52 4.1 39.4 14.1 0.555
16:25 1005 29.68 834 24.63 13.8 56.9 52 4.2 39.5 14.25 0.561
16:26 1005 29.68 834 24.63 14 57.2 55 5.2 41.3 14.52 0.572
16:27 1005 29.68 834 24.63 14 57.3 57 5.7 42.3 14.54 0.572
16:28 1005 29.68 834 24.63 14 57.2 58 5.9 42.6 14.5 0.571
16:29 1005 29.68 834 24.63 13.8 56.9 62 6.7 44.1 14.32 0.564
16:30 1005 29.68 834 24.63 13.6 56.5 64 6.9 44.4 14.13 0.556
16:31 1005 29.68 834 24.63 13.4 56 55 4.6 40.3 13.92 0.548
16:32 1005 29.68 834 24.63 13.5 56.3 60 5.8 42.5 14.14 0.557
16:33 1005 29.68 834 24.63 13.4 56 57 5.1 41.1 13.98 0.55
16:34 1005 29.68 834 24.63 13.3 55.9 61 6 42.8 13.81 0.544
16:35 1005 29.68 834 24.63 13.1 55.6 62 6 42.7 13.69 0.539
16:36 1005 29.68 834 24.63 13 55.4 66 6.9 44.3 13.62 0.536
16:37 1005 29.68 834 24.63 12.9 55.2 67 7 44.6 13.47 0.53
16:38 1005 29.68 834 24.63 12.9 55.2 65 6.5 43.7 13.4 0.528
16:39 1005 29.68 834 24.63 13 55.5 65 6.6 44 13.51 0.532
16:40 1005 29.68 834 24.63 13.2 55.7 63 6.3 43.3 13.65 0.537
16:41 1005 29.68 834 24.63 13.3 55.9 59 5.5 42 13.72 0.54
16:42 1005 29.68 834 24.63 13.3 55.9 62 6.1 43 13.77 0.542
16:43 1005 29.68 834 24.63 13.3 55.9 61 6 42.7 13.7 0.539
16:44 1005 29.68 834 24.63 13.1 55.6 63 6.3 43.3 13.58 0.535
16:45 1005 29.68 834 24.63 13 55.5 62 6 42.8 13.41 0.528
16:46 1005 29.68 834 24.63 12.9 55.3 65 6.6 43.8 13.32 0.524
16:47 1005 29.68 834 24.63 12.8 55.1 65 6.5 43.6 13.24 0.521
16:48 1005 29.68 834 24.63 12.8 55 67 6.9 44.4 13.17 0.519
16:49 1005 29.68 834 24.63 12.7 54.9 65 6.3 43.4 13.07 0.515
16:50 1005 29.68 834 24.63 12.6 54.7 62 5.6 42.1 12.99 0.511
16:51 1005 29.68 835 24.66 12.6 54.6 65 6.1 43 12.92 0.509
16:52 1005 29.68 835 24.66 12.5 54.4 64 5.9 42.7 12.86 0.506
16:53 1005 29.68 835 24.66 12.3 54.1 66 6.1 43 12.68 0.499
16:54 1006 29.71 835 24.66 12.1 53.8 66 5.9 42.6 12.49 0.492
16:55 1006 29.71 835 24.66 11.9 53.4 69 6.5 43.6 12.28 0.483
16:56 1006 29.71 835 24.66 11.7 53.1 66 5.6 42.1 12.1 0.476
16:57 1006 29.71 835 24.66 11.5 52.8 69 6.1 43 11.91 0.469
16:58 1006 29.71 835 24.66 11.3 52.4 71 6.3 43.3 11.7 0.461
16:59 1006 29.71 835 24.66 11 51.9 71 6 42.8 11.42 0.45
17:00 1006 29.71 835 24.66 10.8 51.4 73 6.2 43.1 11.15 0.439
17:01 1006 29.71 835 24.66 10.5 50.9 75 6.3 43.3 10.99 0.433
17:02 1006 29.71 835 24.66 10.4 50.7 74 6.1 42.9 10.88 0.428
17:03 1006 29.71 835 24.66 10.4 50.7 75 6.2 43.2 10.79 0.425
17:04 1006 29.71 835 24.66 10.4 50.7 76 6.3 43.3 10.84 0.427
17:05 1006 29.71 835 24.66 10.4 50.7 76 6.3 43.3 10.84 0.427
17:06 1006 29.71 835 24.66 10.4 50.7 76 6.3 43.4 10.79 0.425
17:07 1006 29.71 835 24.66 10.3 50.6 77 6.5 43.6 10.79 0.425
17:08 1006 29.71 835 24.66 10.4 50.6 78 6.8 44.2 10.78 0.424
17:09 1006 29.71 835 24.66 10.3 50.6 77 6.4 43.5 10.78 0.424
17:10 1006 29.71 835 24.66 10.4 50.6 77 6.6 43.8 10.78 0.424
17:11 1006 29.71 835 24.66 10.4 50.7 77 6.6 43.9 10.91 0.43
17:12 1006 29.71 835 24.66 10.4 50.8 75 6.2 43.2 10.89 0.429
17:13 1006 29.71 835 24.66 10.5 51 77 6.6 43.9 10.97 0.432
17:14 1006 29.71 835 24.66 10.6 51 77 6.8 44.2 11.01 0.433
17:15 1006 29.71 835 24.66 10.6 51.1 76 6.5 43.7 11 0.433
17:16 1006 29.71 835 24.66 10.7 51.2 76 6.6 43.8 11.09 0.437
17:17 1006 29.71 835 24.66 10.7 51.3 73 6.1 43 11.12 0.438
17:18 1006 29.71 835 24.66 10.9 51.5 75 6.7 44.1 11.21 0.441
17:19 1006 29.71 835 24.66 10.9 51.6 77 7 44.6 11.3 0.445
17:20 1006 29.71 835 24.66 11 51.7 73 6.4 43.5 11.35 0.447
17:21 1006 29.71 835 24.66 11.1 51.9 74 6.7 44 11.46 0.451
17:22 1006 29.71 835 24.66 11.1 52 73 6.5 43.7 11.48 0.452
17:23 1006 29.71 835 24.66 11.2 52.1 74 6.8 44.2 11.52 0.454
17:24 1006 29.71 835 24.66 11.2 52.1 75 6.8 44.3 11.56 0.455
17:25 1006 29.71 835 24.66 11.2 52.1 75 6.9 44.4 11.58 0.456
17:26 1006 29.71 835 24.66 11.2 52.2 74 6.8 44.2 11.59 0.456
17:27 1006 29.71 835 24.66 11.2 52.2 74 6.9 44.4 11.64 0.458
17:28 1006 29.71 835 24.66 11.3 52.3 71 6.2 43.2 11.65 0.459
17:29 1006 29.71 835 24.66 11.3 52.4 70 6.2 43.1 11.67 0.459
17:30 1006 29.71 835 24.66 11.4 52.5 71 6.4 43.5 11.78 0.464
17:31 1006 29.71 835 24.66 11.5 52.6 73 6.9 44.4 11.89 0.468
17:32 1006 29.71 835 24.66 11.5 52.7 74 6.9 44.5 11.92 0.469
17:33 1006 29.71 835 24.66 11.5 52.7 72 6.6 43.9 11.93 0.47
17:34 1006 29.71 835 24.66 11.5 52.8 74 7.1 44.8 11.97 0.471
17:35 1006 29.71 835 24.66 11.6 52.8 69 6.1 43 11.98 0.472
17:36 1006 29.71 835 24.66 11.6 52.9 73 7 44.6 12.04 0.474
17:37 1006 29.71 835 24.66 11.6 52.8 73 7 44.5 12 0.472
17:38 1006 29.71 835 24.66 11.5 52.8 72 6.7 44 11.95 0.47
17:39 1006 29.71 835 24.66 11.5 52.7 72 6.7 44.1 11.88 0.468
17:40 1006 29.71 835 24.66 11.5 52.7 74 7 44.6 11.9 0.469
17:41 1006 29.71 836 24.69 11.5 52.6 74 7 44.6 11.89 0.468
17:42 1006 29.71 836 24.69 11.5 52.6 74 7 44.6 11.85 0.467
17:43 1006 29.71 836 24.69 11.5 52.7 74 7 44.6 11.84 0.466
17:44 1006 29.71 836 24.69 11.5 52.7 75 7.2 45 11.91 0.469
17:45 1007 29.74 836 24.69 11.5 52.7 74 7 44.6 11.89 0.468
17:46 1006 29.71 836 24.69 11.5 52.8 72 6.7 44.1 11.91 0.469
17:47 1007 29.74 836 24.69 11.6 52.9 73 7 44.6 11.93 0.47
17:48 1007 29.74 836 24.69 11.6 52.9 72 6.7 44.1 12.04 0.474
17:49 1007 29.74 836 24.69 11.7 53.1 73 7 44.6 12.09 0.476
17:50 1006 29.71 836 24.69 11.8 53.2 68 6.2 43.1 12.1 0.476
17:51 1007 29.74 836 24.69 11.9 53.4 65 5.6 42 12.25 0.482
17:52 1007 29.74 836 24.69 12 53.7 65 5.8 42.4 12.37 0.487
17:53 1006 29.71 836 24.69 12.1 53.7 65 5.8 42.4 12.4 0.488
17:54 1006 29.71 836 24.69 12.1 53.8 64 5.5 41.8 12.45 0.49
17:55 1006 29.71 836 24.69 12.1 53.8 65 5.8 42.4 12.42 0.489
17:56 1006 29.71 836 24.69 12.1 53.7 68 6.5 43.7 12.41 0.489
17:57 1006 29.71 836 24.69 12 53.6 65 5.7 42.2 12.36 0.487
17:58 1006 29.71 836 24.69 11.9 53.5 68 6.3 43.3 12.29 0.484
17:59 1006 29.71 836 24.69 11.9 53.3 68 6.2 43.2 12.27 0.483
18:00 1006 29.71 836 24.69 11.8 53.3 69 6.3 43.3 12.19 0.48
18:01 1006 29.71 836 24.69 11.8 53.3 66 5.6 42.1 12.19 0.48
18:02 1006 29.71 836 24.69 11.8 53.3 67 5.9 42.5 12.23 0.481
18:03 1006 29.71 836 24.69 11.9 53.3 66 5.8 42.5 12.24 0.482
18:04 1006 29.71 836 24.69 11.9 53.4 63 5.1 41.2 12.3 0.484
18:05 1006 29.71 836 24.69 12 53.5 65 5.6 42.1 12.31 0.485
18:06 1006 29.71 836 24.69 11.8 53.3 64 5.3 41.6 12.2 0.48
18:07 1006 29.71 835 24.66 11.8 53.2 62 4.8 40.6 12.15 0.478
18:08 1006 29.71 835 24.66 11.8 53.2 60 4.4 39.9 12.19 0.48
18:09 1006 29.71 835 24.66 11.8 53.2 61 4.7 40.4 12.17 0.479
18:10 1006 29.71 835 24.66 11.7 53.1 63 4.9 40.8 12.1 0.476
18:11 1006 29.71 835 24.66 11.7 53.1 62 4.8 40.7 12.1 0.476
18:12 1006 29.71 835 24.66 11.7 53.1 62 4.8 40.6 12.12 0.477
18:13 1006 29.71 835 24.66 11.7 53.1 63 4.9 40.9 12.11 0.477
18:14 1006 29.71 835 24.66 11.7 53 64 5 41.1 11.98 0.472
18:15 1006 29.71 835 24.66 11.6 52.8 66 5.5 41.9 11.94 0.47
18:16 1006 29.71 835 24.66 11.6 52.8 62 4.6 40.3 11.94 0.47
18:17 1006 29.71 835 24.66 11.6 52.8 66 5.5 41.9 11.99 0.472
18:18 1006 29.71 835 24.66 11.6 52.9 61 4.4 39.8 11.99 0.472
18:19 1006 29.71 835 24.66 11.7 53.1 63 4.9 40.7 12.18 0.48
18:20 1006 29.71 835 24.66 11.8 53.2 62 4.8 40.7 12.22 0.481
18:21 1006 29.71 835 24.66 11.7 53.1 62 4.7 40.4 12.2 0.48
18:22 1006 29.71 835 24.66 11.8 53.2 64 5.3 41.5 12.27 0.483
18:23 1006 29.71 835 24.66 11.8 53.2 63 5 41 12.22 0.481
18:24 1006 29.71 835 24.66 11.8 53.2 64 5.2 41.3 12.17 0.479
18:25 1006 29.71 835 24.66 11.8 53.2 62 4.9 40.8 12.23 0.481
18:26 1006 29.71 835 24.66 11.8 53.2 64 5.3 41.5 12.22 0.481
18:27 1006 29.71 835 24.66 11.8 53.2 64 5.1 41.2 12.21 0.481
18:28 1006 29.71 835 24.66 11.8 53.2 64 5.1 41.2 12.18 0.48
18:29 1006 29.71 835 24.66 11.7 53.1 63 5 41.1 12.15 0.478
18:30 1006 29.71 835 24.66 11.8 53.2 64 5.2 41.3 12.12 0.477
18:31 1006 29.71 835 24.66 11.7 53.1 64 5.2 41.4 12.14 0.478
18:32 1006 29.71 835 24.66 11.7 53.1 65 5.4 41.7 12.1 0.476
18:33 1006 29.71 835 24.66 11.7 53 65 5.4 41.7 12.09 0.476
18:34 1006 29.71 835 24.66 11.7 53 66 5.5 41.9 12.06 0.475
18:35 1006 29.71 835 24.66 11.7 53 65 5.3 41.5 12.07 0.475
18:36 1006 29.71 835 24.66 11.6 53 65 5.3 41.6 12.06 0.475
18:37 1006 29.71 835 24.66 11.7 53.1 64 5.2 41.3 12.14 0.478
18:38 1006 29.71 835 24.66 11.8 53.2 64 5.2 41.4 12.16 0.479
18:39 1006 29.71 835 24.66 11.8 53.3 64 5.3 41.6 12.23 0.481
18:40 1006 29.71 835 24.66 11.8 53.3 66 5.7 42.3 12.27 0.483
18:41 1006 29.71 835 24.66 11.8 53.3 66 5.6 42.2 12.25 0.482
18:42 1006 29.71 835 24.66 11.8 53.3 61 4.6 40.4 12.21 0.481
18:43 1006 29.71 835 24.66 12 53.5 63 5.2 41.3 12.32 0.485
18:44 1006 29.71 835 24.66 12 53.7 68 6.3 43.4 12.4 0.488
18:45 1006 29.71 835 24.66 12 53.5 67 6 42.8 12.37 0.487
18:46 1006 29.71 835 24.66 11.9 53.5 66 5.8 42.4 12.31 0.485
18:47 1006 29.71 835 24.66 11.9 53.5 65 5.6 42.1 12.29 0.484
18:48 1006 29.71 835 24.66 12 53.5 66 5.8 42.5 12.29 0.484
18:49 1006 29.71 835 24.66 11.9 53.4 66 5.9 42.5 12.32 0.485
18:50 1006 29.71 835 24.66 11.9 53.3 66 5.8 42.4 12.24 0.482
18:51 1006 29.71 835 24.66 11.8 53.2 66 5.8 42.4 12.2 0.48
18:52 1006 29.71 835 24.66 11.7 53.1 64 5.2 41.4 12.1 0.476
18:53 1006 29.71 835 24.66 11.7 53.1 66 5.7 42.2 12.09 0.476
18:54 1006 29.71 835 24.66 11.7 53 69 6.2 43.1 12.06 0.475
18:55 1006 29.71 835 24.66 11.5 52.8 69 6 42.8 12 0.472
18:56 1006 29.71 835 24.66 11.4 52.6 68 5.9 42.6 11.89 0.468
18:57 1006 29.71 835 24.66 11.4 52.6 70 6.2 43.2 11.85 0.467
18:58 1006 29.71 835 24.66 11.4 52.4 71 6.3 43.4 11.8 0.465
18:59 1006 29.71 835 24.66 11.3 52.3 67 5.5 41.9 11.7 0.461
19:00 1006 29.71 835 24.66 11.3 52.4 67 5.6 42 11.68 0.46
19:01 1006 29.71 835 24.66 11.4 52.5 66 5.3 41.5 11.78 0.464
19:02 1006 29.71 835 24.66 11.5 52.6 70 6.3 43.3 11.86 0.467
19:03 1006 29.71 835 24.66 11.3 52.3 73 6.6 43.9 11.8 0.465
19:04 1006 29.71 835 24.66 11.1 52.1 74 6.7 44.1 11.65 0.459
19:05 1006 29.71 835 24.66 11 51.8 76 6.9 44.4 11.5 0.453
19:06 1006 29.71 835 24.66 10.9 51.7 76 6.9 44.4 11.42 0.45
19:07 1006 29.71 835 24.66 10.9 51.7 76 6.9 44.4 11.31 0.445
19:08 1006 29.71 835 24.66 10.9 51.7 77 7.2 44.9 11.32 0.446
19:09 1006 29.71 835 24.66 10.9 51.6 77 7 44.6 11.31 0.445
19:10 1006 29.71 835 24.66 10.9 51.6 77 7.1 44.7 11.31 0.445
19:11 1006 29.71 835 24.66 10.9 51.5 78 7.1 44.8 11.27 0.444
19:12 1006 29.71 835 24.66 10.8 51.4 77 7 44.6 11.25 0.443
19:13 1006 29.71 835 24.66 10.8 51.5 78 7.1 44.9 11.25 0.443
19:14 1006 29.71 835 24.66 10.8 51.4 78 7.1 44.7 11.23 0.442
19:15 1006 29.71 835 24.66 10.8 51.4 77 6.9 44.4 11.22 0.442
19:16 1006 29.71 835 24.66 10.8 51.4 76 6.7 44.1 11.2 0.441
19:17 1006 29.71 835 24.66 10.8 51.4 76 6.7 44 11.17 0.44
19:18 1006 29.71 835 24.66 10.8 51.4 77 6.9 44.4 11.15 0.439
19:19 1006 29.71 835 24.66 10.8 51.4 77 6.9 44.3 11.15 0.439
19:20 1006 29.71 835 24.66 10.8 51.4 76 6.8 44.2 11.16 0.439
19:21 1006 29.71 835 24.66 10.8 51.4 76 6.8 44.2 11.15 0.439
19:22 1006 29.71 836 24.69 10.7 51.3 76 6.7 44.1 11.11 0.437
19:23 1006 29.71 836 24.69 10.7 51.2 76 6.7 44.1 11.1 0.437
19:24 1006 29.71 836 24.69 10.7 51.2 75 6.4 43.5 11.05 0.435
19:25 1006 29.71 836 24.69 10.7 51.3 75 6.4 43.6 11.12 0.438
19:26 1006 29.71 836 24.69 10.8 51.4 75 6.6 43.8 11.13 0.438
19:27 1006 29.71 836 24.69 10.8 51.4 74 6.4 43.5 11.17 0.44
19:28 1006 29.71 836 24.69 10.8 51.4 76 6.7 44.1 11.15 0.439
19:29 1006 29.71 836 24.69 10.7 51.3 74 6.3 43.4 11.17 0.44
19:30 1006 29.71 836 24.69 10.8 51.4 75 6.5 43.7 11.15 0.439
19:31 1006 29.71 836 24.69 10.8 51.4 75 6.5 43.7 11.13 0.438
19:32 1006 29.71 836 24.69 10.7 51.3 75 6.6 43.8 11.13 0.438
19:33 1006 29.71 836 24.69 10.7 51.2 75 6.5 43.7 11.1 0.437
19:34 1007 29.74 836 24.69 10.7 51.2 77 6.8 44.2 11.08 0.436
19:35 1007 29.74 836 24.69 10.6 51.1 77 6.7 44.1 11 0.433
19:36 1007 29.74 836 24.69 10.5 51 78 6.8 44.3 10.98 0.432
19:37 1007 29.74 836 24.69 10.5 50.8 78 6.8 44.3 10.93 0.43
19:38 1007 29.74 836 24.69 10.4 50.8 79 6.9 44.5 10.89 0.429
19:39 1007 29.74 836 24.69 10.4 50.8 79 6.9 44.4 10.81 0.426
19:40 1007 29.74 836 24.69 10.4 50.7 77 6.6 43.9 10.83 0.426
19:41 1007 29.74 836 24.69 10.4 50.8 78 6.7 44.1 10.83 0.426
19:42 1007 29.74 836 24.69 10.5 51 74 6 42.9 10.89 0.429
19:43 1007 29.74 836 24.69 10.8 51.4 72 5.9 42.7 11.1 0.437
19:44 1007 29.74 836 24.69 10.9 51.6 73 6.2 43.1 11.28 0.444
19:45 1007 29.74 836 24.69 11.1 51.9 68 5.5 41.8 11.39 0.448
19:46 1007 29.74 836 24.69 11.3 52.4 68 5.6 42 11.62 0.457
19:47 1007 29.74 836 24.69 11.4 52.5 68 5.7 42.3 11.76 0.463
19:48 1007 29.74 836 24.69 11.4 52.6 70 6.2 43.1 11.78 0.464
19:49 1007 29.74 836 24.69 11.3 52.4 71 6.3 43.4 11.73 0.462
19:50 1007 29.74 836 24.69 11.2 52.2 71 6.2 43.1 11.61 0.457
19:51 1007 29.74 836 24.69 11.1 52 69 5.8 42.4 11.55 0.455
19:52 1007 29.74 836 24.69 11.2 52.2 70 5.9 42.6 11.59 0.456
19:53 1007 29.74 836 24.69 11.3 52.4 69 5.8 42.4 11.67 0.459
19:54 1007 29.74 836 24.69 11.4 52.4 70 6.1 43 11.78 0.464
19:55 1007 29.74 836 24.69 11.4 52.5 70 6.1 42.9 11.78 0.464
19:56 1007 29.74 836 24.69 11.4 52.5 70 6.1 42.9 11.78 0.464
19:57 1007 29.74 836 24.69 11.4 52.6 70 6.2 43.2 11.76 0.463
19:58 1007 29.74 836 24.69 11.4 52.4 69 6 42.7 11.7 0.461
19:59 1007 29.74 836 24.69 11.3 52.4 70 6.1 43 11.72 0.461
20:00 1007 29.74 836 24.69 11.3 52.3 71 6.2 43.2 11.67 0.459
20:01 1007 29.74 836 24.69 11.2 52.2 72 6.4 43.4 11.59 0.456
20:02 1007 29.74 836 24.69 11.2 52.1 73 6.5 43.7 11.55 0.455
20:03 1007 29.74 836 24.69 11.1 51.9 73 6.5 43.8 11.49 0.452
20:04 1007 29.74 836 24.69 11 51.8 73 6.4 43.5 11.43 0.45
20:05 1007 29.74 836 24.69 11 51.8 74 6.6 43.8 11.39 0.448
20:06 1007 29.74 836 24.69 11 51.8 74 6.5 43.7 11.37 0.448
20:07 1007 29.74 837 24.72 10.9 51.7 75 6.7 44 11.33 0.446
20:08 1007 29.74 836 24.69 10.9 51.6 75 6.7 44.1 11.3 0.445
20:09 1007 29.74 837 24.72 10.9 51.5 74 6.5 43.7 11.26 0.443
20:10 1007 29.74 837 24.72 10.9 51.5 75 6.7 44 11.28 0.444
20:11 1007 29.74 837 24.72 10.9 51.5 73 6.1 43.1 11.25 0.443
20:12 1007 29.74 837 24.72 10.9 51.7 72 6.2 43.2 11.33 0.446
20:13 1007 29.74 837 24.72 10.9 51.6 73 6.2 43.2 11.27 0.444
20:14 1008 29.77 837 24.72 10.8 51.5 74 6.4 43.6 11.18 0.44
20:15 1008 29.77 837 24.72 10.7 51.3 74 6.3 43.4 11.11 0.437
20:16 1008 29.77 837 24.72 10.6 51.1 76 6.5 43.7 11.04 0.435
20:17 1008 29.77 837 24.72 10.5 51 76 6.4 43.6 10.93 0.43
20:18 1008 29.77 837 24.72 10.4 50.8 76 6.5 43.7 10.82 0.426
20:19 1008 29.77 837 24.72 10.4 50.7 77 6.5 43.7 10.82 0.426
20:20 1008 29.77 837 24.72 10.3 50.5 77 6.4 43.5 10.78 0.424
20:21 1008 29.77 837 24.72 10.3 50.5 78 6.5 43.8 10.68 0.42
20:22 1008 29.77 837 24.72 10.2 50.3 80 6.8 44.2 10.6 0.417
20:23 1008 29.77 837 24.72 10 50.1 81 6.9 44.4 10.51 0.414
20:24 1008 29.77 837 24.72 9.9 49.8 81 6.7 44.1 10.41 0.41
20:25 1008 29.77 837 24.72 9.9 49.7 81 6.8 44.2 10.3 0.406
20:26 1008 29.77 837 24.72 9.8 49.7 82 6.9 44.4 10.26 0.404
20:27 1008 29.77 837 24.72 9.8 49.6 82 6.9 44.4 10.21 0.402
20:28 1008 29.77 837 24.72 9.7 49.5 83 7 44.5 10.16 0.4
20:29 1008 29.77 837 24.72 9.7 49.4 82 6.8 44.3 10.12 0.398
20:30 1008 29.77 837 24.72 9.7 49.5 82 6.8 44.3 10.11 0.398
20:31 1008 29.77 837 24.72 9.7 49.4 82 6.8 44.2 10.11 0.398
20:32 1008 29.77 837 24.72 9.7 49.4 80 6.5 43.7 10.09 0.397
20:33 1008 29.77 837 24.72 9.7 49.5 81 6.7 44 10.09 0.397
20:34 1008 29.77 837 24.72 9.7 49.5 80 6.5 43.7 10.09 0.397
20:35 1008 29.77 837 24.72 9.7 49.5 80 6.4 43.6 10.08 0.397
20:36 1008 29.77 837 24.72 9.7 49.5 80 6.4 43.6 10.08 0.397
20:37 1008 29.77 837 24.72 9.7 49.5 80 6.4 43.6 10.13 0.399
20:38 1008 29.77 837 24.72 9.8 49.6 80 6.4 43.5 10.12 0.398
20:39 1008 29.77 837 24.72 9.8 49.6 79 6.2 43.2 10.12 0.398
20:40 1008 29.77 837 24.72 9.8 49.6 80 6.4 43.6 10.12 0.398
20:41 1008 29.77 837 24.72 9.7 49.5 78 6.2 43.1 10.14 0.399
20:42 1008 29.77 837 24.72 9.8 49.6 77 6.1 42.9 10.14 0.399
20:43 1008 29.77 837 24.72 9.9 49.7 78 6.2 43.2 10.2 0.402
20:44 1008 29.77 837 24.72 9.9 49.8 79 6.4 43.4 10.27 0.404
20:45 1008 29.77 837 24.72 9.9 49.7 79 6.4 43.6 10.25 0.404
20:46 1008 29.77 837 24.72 9.8 49.7 80 6.5 43.7 10.23 0.403
20:47 1008 29.77 837 24.72 9.8 49.6 80 6.5 43.7 10.2 0.402
20:48 1008 29.77 837 24.72 9.8 49.6 80 6.5 43.8 10.15 0.4
20:49 1008 29.77 837 24.72 9.7 49.4 81 6.5 43.8 10.14 0.399
20:50 1008 29.77 837 24.72 9.7 49.4 82 6.8 44.2 10.1 0.398
20:51 1008 29.77 837 24.72 9.6 49.2 82 6.6 43.9 10.07 0.396
20:52 1008 29.77 837 24.72 9.6 49.3 82 6.7 44.1 10.04 0.395
20:53 1008 29.77 837 24.72 9.6 49.3 80 6.3 43.3 10.01 0.394
20:54 1008 29.77 837 24.72 9.8 49.6 76 5.8 42.4 10.08 0.397
20:55 1008 29.77 837 24.72 10 49.9 76 6 42.8 10.28 0.405
20:56 1008 29.77 837 24.72 10.1 50.1 76 6.1 42.9 10.4 0.409
20:57 1008 29.77 837 24.72 10.1 50.1 76 6 42.9 10.43 0.411
20:58 1008 29.77 837 24.72 10.1 50.1 78 6.5 43.7 10.46 0.412
20:59 1008 29.77 837 24.72 10 50 78 6.3 43.4 10.45 0.411
21:00 1008 29.77 837 24.72 10 50 77 6.2 43.2 10.4 0.409
21:01 1008 29.77 837 24.72 10 49.9 79 6.4 43.6 10.36 0.408
21:02 1008 29.77 838 24.75 9.9 49.8 78 6.3 43.4 10.3 0.406
21:03 1008 29.77 838 24.75 9.8 49.7 80 6.6 43.8 10.27 0.404
21:04 1008 29.77 838 24.75 9.8 49.6 81 6.7 44.1 10.19 0.401
21:05 1008 29.77 838 24.75 9.7 49.4 81 6.6 43.9 10.08 0.397
21:06 1008 29.77 838 24.75 9.6 49.2 81 6.5 43.8 10.03 0.395
21:07 1008 29.77 838 24.75 9.6 49.2 81 6.5 43.6 9.99 0.393
21:08 1008 29.77 838 24.75 9.6 49.2 81 6.5 43.8 9.98 0.393
21:09 1008 29.77 838 24.75 9.5 49.1 83 6.9 44.3 9.93 0.391
21:10 1008 29.77 838 24.75 9.4 48.9 84 6.8 44.3 9.86 0.388
21:11 1008 29.77 838 24.75 9.3 48.7 85 6.9 44.3 9.78 0.385
21:12 1008 29.77 838 24.75 9.2 48.6 84 6.7 44.1 9.7 0.382
21:13 1008 29.77 838 24.75 9.2 48.6 84 6.7 44.1 9.63 0.379
21:14 1008 29.77 838 24.75 9.2 48.6 84 6.6 43.9 9.63 0.379
21:15 1008 29.77 838 24.75 9.3 48.7 84 6.7 44 9.66 0.38
21:16 1008 29.77 838 24.75 9.3 48.7 83 6.6 43.9 9.63 0.379
21:17 1008 29.77 838 24.75 9.3 48.7 84 6.7 44.1 9.63 0.379
21:18 1008 29.77 838 24.75 9.2 48.6 85 6.8 44.3 9.67 0.381
21:19 1008 29.77 838 24.75 9.2 48.5 85 6.7 44.1 9.6 0.378
21:20 1008 29.77 838 24.75 9.1 48.4 83 6.3 43.4 9.57 0.377
21:21 1008 29.77 838 24.75 9.3 48.7 84 6.7 44 9.63 0.379
21:22 1008 29.77 838 24.75 9.2 48.6 85 6.8 44.2 9.61 0.378
21:23 1009 29.8 838 24.75 9.2 48.5 85 6.8 44.3 9.62 0.379
21:24 1009 29.8 838 24.75 9.1 48.3 85 6.7 44.1 9.59 0.378
21:25 1008 29.77 838 24.75 9.1 48.4 86 6.8 44.3 9.52 0.375
21:26 1009 29.8 838 24.75 9.1 48.4 84 6.5 43.7 9.51 0.374
21:27 1009 29.8 838 24.75 9.2 48.5 85 6.8 44.3 9.57 0.377
21:28 1009 29.8 838 24.75 9 48.3 86 6.9 44.4 9.5 0.374
21:29 1009 29.8 838 24.75 9 48.2 86 6.8 44.3 9.42 0.371
21:30 1009 29.8 838 24.75 9 48.1 87 6.9 44.4 9.4 0.37
21:31 1009 29.8 838 24.75 8.9 48 87 6.9 44.4 9.37 0.369
21:32 1009 29.8 838 24.75 8.9 47.9 87 6.8 44.3 9.3 0.366
21:33 1009 29.8 838 24.75 8.8 47.9 87 6.8 44.3 9.27 0.365
21:34 1009 29.8 838 24.75 8.8 47.9 86 6.7 44 9.27 0.365
21:35 1009 29.8 838 24.75 8.9 48 85 6.6 43.9 9.27 0.365
21:36 1009 29.8 838 24.75 8.9 48.1 86 6.7 44 9.31 0.367
21:37 1009 29.8 838 24.75 8.9 48.1 86 6.7 44 9.34 0.368
21:38 1009 29.8 838 24.75 8.9 48.1 85 6.5 43.8 9.32 0.367
21:39 1009 29.8 838 24.75 9 48.1 85 6.6 43.9 9.33 0.367
21:40 1009 29.8 838 24.75 9 48.2 85 6.6 43.9 9.35 0.368
21:41 1009 29.8 838 24.75 9 48.2 85 6.7 44 9.33 0.367
21:42 1009 29.8 838 24.75 9 48.1 86 6.7 44.1 9.4 0.37
21:43 1009 29.8 838 24.75 9 48.1 86 6.8 44.2 9.34 0.368
21:44 1009 29.8 838 24.75 8.9 48 87 6.8 44.3 9.34 0.368
21:45 1009 29.8 838 24.75 8.8 47.9 86 6.7 44 9.3 0.366
21:46 1009 29.8 838 24.75 8.8 47.9 87 6.7 44.1 9.22 0.363
21:47 1009 29.8 838 24.75 8.8 47.9 87 6.7 44.1 9.27 0.365
21:48 1009 29.8 838 24.75 8.8 47.9 87 6.8 44.3 9.24 0.364
21:49 1009 29.8 838 24.75 8.8 47.8 87 6.8 44.2 9.23 0.363
21:50 1009 29.8 838 24.75 8.8 47.8 84 6.3 43.3 9.2 0.362
21:51 1009 29.8 838 24.75 9 48.1 83 6.2 43.2 9.26 0.365
21:52 1009 29.8 838 24.75 9.1 48.3 83 6.4 43.5 9.38 0.369
21:53 1009 29.8 838 24.75 9.1 48.4 84 6.6 43.9 9.46 0.372
21:54 1009 29.8 838 24.75 9.1 48.4 84 6.5 43.7 9.49 0.374
21:55 1009 29.8 838 24.75 9.1 48.4 82 6.2 43.1 9.47 0.373
21:56 1009 29.8 838 24.75 9.2 48.6 82 6.2 43.2 9.55 0.376
21:57 1009 29.8 838 24.75 9.3 48.7 82 6.3 43.4 9.59 0.378
21:58 1009 29.8 838 24.75 9.3 48.7 81 6.3 43.3 9.63 0.379
21:59 1009 29.8 838 24.75 9.3 48.7 83 6.5 43.7 9.66 0.38
22:00 1009 29.8 838 24.75 9.2 48.6 82 6.3 43.4 9.65 0.38
22:01 1009 29.8 838 24.75 9.3 48.7 82 6.4 43.5 9.62 0.379
22:02 1009 29.8 838 24.75 9.3 48.7 82 6.4 43.6 9.67 0.381
22:03 1009 29.8 838 24.75 9.3 48.7 79 5.8 42.4 9.63 0.379
22:04 1009 29.8 838 24.75 9.4 48.9 79 6 42.8 9.72 0.383
22:05 1009 29.8 838 24.75 9.5 49 80 6.3 43.3 9.83 0.387
22:06 1009 29.8 838 24.75 9.4 49 82 6.5 43.6 9.85 0.388
22:07 1009 29.8 838 24.75 9.3 48.8 81 6.3 43.3 9.75 0.384
22:08 1009 29.8 838 24.75 9.3 48.8 80 6.1 43 9.67 0.381
22:09 1009 29.8 838 24.75 9.3 48.7 79 5.9 42.7 9.71 0.382
22:10 1009 29.8 838 24.75 9.3 48.8 79 5.9 42.6 9.71 0.382
22:11 1009 29.8 838 24.75 9.4 48.8 80 6.1 43.1 9.76 0.384
22:12 1009 29.8 838 24.75 9.3 48.7 81 6.2 43.1 9.69 0.381
22:13 1009 29.8 838 24.75 9.3 48.7 81 6.2 43.1 9.69 0.381
22:14 1009 29.8 838 24.75 9.2 48.5 80 6 42.8 9.62 0.379
22:15 1009 29.8 838 24.75 9.2 48.5 82 6.3 43.3 9.58 0.377
22:16 1009 29.8 838 24.75 9.1 48.4 81 6 42.9 9.5 0.374
22:17 1009 29.8 838 24.75 9.1 48.4 83 6.4 43.4 9.5 0.374
22:18 1009 29.8 838 24.75 9.1 48.3 84 6.4 43.6 9.45 0.372
22:19 1009 29.8 838 24.75 9 48.1 84 6.4 43.5 9.41 0.37
22:20 1009 29.8 838 24.75 8.9 48 84 6.3 43.3 9.33 0.367
22:21 1009 29.8 838 24.75 8.9 47.9 85 6.4 43.5 9.3 0.366
22:22 1009 29.8 838 24.75 8.8 47.9 84 6.2 43.2 9.22 0.363
22:23 1009 29.8 838 24.75 8.8 47.8 86 6.5 43.7 9.22 0.363
22:24 1009 29.8 838 24.75 8.7 47.7 86 6.5 43.7 9.17 0.361
22:25 1009 29.8 838 24.75 8.7 47.6 85 6.3 43.4 9.07 0.357
22:26 1009 29.8 838 24.75 8.6 47.5 86 6.4 43.5 9.03 0.356
22:27 1009 29.8 838 24.75 8.6 47.4 86 6.3 43.3 8.95 0.352
22:28 1009 29.8 838 24.75 8.5 47.3 85 6.2 43.2 8.94 0.352
22:29 1009 29.8 838 24.75 8.5 47.2 86 6.3 43.4 8.9 0.35
22:30 1009 29.8 838 24.75 8.4 47.2 87 6.4 43.5 8.89 0.35
22:31 1009 29.8 838 24.75 8.4 47.1 87 6.4 43.4 8.85 0.348
22:32 1009 29.8 838 24.75 8.4 47.1 87 6.3 43.4 8.78 0.346
22:33 1009 29.8 838 24.75 8.3 47 87 6.3 43.3 8.77 0.345
22:34 1009 29.8 838 24.75 8.3 47 87 6.2 43.2 8.74 0.344
22:35 1009 29.8 838 24.75 8.3 46.9 87 6.2 43.2 8.72 0.343
22:36 1009 29.8 838 24.75 8.3 46.9 87 6.3 43.3 8.72 0.343
22:37 1009 29.8 838 24.75 8.3 46.9 87 6.3 43.4 8.69 0.342
22:38 1009 29.8 838 24.75 8.3 46.9 87 6.3 43.3 8.68 0.342
22:39 1009 29.8 838 24.75 8.2 46.8 88 6.3 43.4 8.68 0.342
22:40 1009 29.8 838 24.75 8.2 46.8 88 6.3 43.3 8.67 0.341
22:41 1009 29.8 838 24.75 8.2 46.8 88 6.3 43.4 8.64 0.34
22:42 1009 29.8 838 24.75 8.2 46.8 88 6.4 43.6 8.63 0.34
22:43 1009 29.8 838 24.75 8.2 46.7 89 6.4 43.5 8.61 0.339
22:44 1009 29.8 838 24.75 8.1 46.6 89 6.4 43.5 8.56 0.337
22:45 1009 29.8 838 24.75 8.2 46.7 89 6.5 43.6 8.56 0.337
22:46 1009 29.8 838 24.75 8.1 46.6 89 6.4 43.5 8.53 0.336
22:47 1009 29.8 838 24.75 8.1 46.6 89 6.4 43.5 8.51 0.335
22:48 1009 29.8 838 24.75 8.1 46.5 89 6.4 43.4 8.54 0.336
22:49 1009 29.8 838 24.75 8.1 46.6 89 6.4 43.6 8.5 0.335
22:50 1009 29.8 839 24.78 8.1 46.5 89 6.3 43.4 8.49 0.334
22:51 1009 29.8 838 24.75 8.1 46.6 89 6.4 43.5 8.45 0.333
22:52 1009 29.8 838 24.75 8.1 46.5 88 6.2 43.2 8.49 0.334
22:53 1009 29.8 838 24.75 8.1 46.6 88 6.3 43.4 8.5 0.335
22:54 1009 29.8 839 24.78 8.1 46.6 88 6.3 43.3 8.5 0.335
22:55 1009 29.8 839 24.78 8.1 46.7 88 6.4 43.4 8.48 0.334
22:56 1009 29.8 839 24.78 8.1 46.6 89 6.3 43.4 8.52 0.335
22:57 1009 29.8 839 24.78 8.1 46.5 88 6.2 43.1 8.51 0.335
22:58 1009 29.8 839 24.78 8.1 46.6 88 6.3 43.4 8.51 0.335
22:59 1009 29.8 839 24.78 8.1 46.6 88 6.3 43.3 8.52 0.335
23:00 1009 29.8 839 24.78 8.1 46.6 88 6.3 43.3 8.51 0.335
23:01 1009 29.8 839 24.78 8.1 46.6 88 6.2 43.2 8.48 0.334
23:02 1009 29.8 839 24.78 8.1 46.5 88 6.2 43.2 8.48 0.334
23:03 1009 29.8 839 24.78 8.1 46.5 88 6.2 43.1 8.47 0.333
23:04 1009 29.8 839 24.78 8.1 46.5 88 6.2 43.2 8.5 0.335
23:05 1009 29.8 839 24.78 8.1 46.5 88 6.2 43.2 8.47 0.333
23:06 1009 29.8 839 24.78 8 46.5 88 6.2 43.1 8.45 0.333
23:07 1009 29.8 839 24.78 8.1 46.5 88 6.2 43.1 8.41 0.331
23:08 1009 29.8 839 24.78 8 46.5 88 6.1 43 8.41 0.331
23:09 1010 29.83 839 24.78 8.1 46.5 88 6.2 43.1 8.41 0.331
23:10 1010 29.83 839 24.78 8 46.3 88 6.1 43 8.39 0.33
23:11 1010 29.83 839 24.78 8 46.4 88 6.1 42.9 8.37 0.33
23:12 1010 29.83 839 24.78 8 46.4 88 6.1 42.9 8.4 0.331
23:13 1010 29.83 839 24.78 8 46.3 87 6 42.8 8.37 0.33
23:14 1010 29.83 839 24.78 8 46.4 87 6 42.9 8.39 0.33
23:15 1010 29.83 839 24.78 8 46.3 87 6 42.7 8.38 0.33
23:16 1010 29.83 839 24.78 8 46.4 88 6.1 43 8.38 0.33
23:17 1010 29.83 839 24.78 8 46.3 88 6.1 42.9 8.38 0.33
23:18 1010 29.83 839 24.78 7.9 46.3 88 6.1 42.9 8.33 0.328
23:19 1010 29.83 839 24.78 7.9 46.3 87 5.9 42.6 8.34 0.328
23:20 1010 29.83 839 24.78 8 46.3 87 5.9 42.5 8.34 0.328
23:21 1010 29.83 839 24.78 8 46.3 86 5.7 42.3 8.36 0.329
23:22 1010 29.83 839 24.78 8 46.4 86 5.7 42.3 8.36 0.329
23:23 1010 29.83 839 24.78 8 46.4 86 5.9 42.5 8.39 0.33
23:24 1010 29.83 839 24.78 8 46.3 86 5.7 42.3 8.37 0.33
23:25 1010 29.83 839 24.78 8 46.3 86 5.8 42.4 8.34 0.328
23:26 1010 29.83 839 24.78 7.9 46.3 86 5.8 42.4 8.31 0.327
23:27 1010 29.83 839 24.78 7.9 46.2 87 5.8 42.4 8.27 0.326
23:28 1010 29.83 839 24.78 7.9 46.1 87 5.9 42.5 8.27 0.326
23:29 1010 29.83 839 24.78 7.8 46.1 87 5.8 42.5 8.21 0.323
23:30 1010 29.83 839 24.78 7.8 46 87 5.7 42.3 8.21 0.323
23:31 1010 29.83 839 24.78 7.7 45.9 87 5.6 42.2 8.15 0.321
23:32 1010 29.83 839 24.78 7.8 46 87 5.8 42.4 8.19 0.322
23:33 1010 29.83 839 24.78 7.8 46 87 5.7 42.3 8.15 0.321
23:34 1010 29.83 839 24.78 7.7 45.9 88 5.8 42.4 8.15 0.321
23:35 1010 29.83 839 24.78 7.7 45.8 88 5.8 42.4 8.16 0.321
23:36 1010 29.83 839 24.78 7.7 45.8 88 5.8 42.4 8.11 0.319
23:37 1010 29.83 839 24.78 7.7 45.8 88 5.8 42.4 8.09 0.319
23:38 1010 29.83 839 24.78 7.6 45.7 88 5.7 42.3 8.04 0.317
23:39 1010 29.83 839 24.78 7.6 45.8 88 5.8 42.4 8.03 0.316
23:40 1010 29.83 839 24.78 7.6 45.7 88 5.7 42.3 8.05 0.317
23:41 1010 29.83 839 24.78 7.6 45.7 88 5.8 42.4 8.04 0.317
23:42 1010 29.83 839 24.78 7.6 45.7 88 5.7 42.3 8.02 0.316
23:43 1010 29.83 839 24.78 7.6 45.7 89 5.8 42.5 8.02 0.316
23:44 1010 29.83 839 24.78 7.5 45.6 88 5.7 42.2 7.99 0.315
23:45 1010 29.83 839 24.78 7.6 45.6 89 5.8 42.5 7.96 0.313
23:46 1010 29.83 839 24.78 7.6 45.6 88 5.7 42.3 7.99 0.315
23:47 1010 29.83 839 24.78 7.6 45.6 88 5.7 42.3 7.93 0.312
23:48 1010 29.83 839 24.78 7.5 45.6 88 5.7 42.3 7.93 0.312
23:49 1010 29.83 839 24.78 7.5 45.5 89 5.8 42.4 7.91 0.311
23:50 1010 29.83 839 24.78 7.5 45.5 88 5.7 42.3 7.93 0.312
23:51 1010 29.83 839 24.78 7.5 45.5 89 5.8 42.4 7.91 0.311
23:52 1010 29.83 839 24.78 7.4 45.4 89 5.8 42.4 7.88 0.31
23:53 1010 29.83 839 24.78 7.4 45.3 90 5.8 42.5 7.87 0.31
23:54 1010 29.83 839 24.78 7.4 45.3 89 5.7 42.3 7.86 0.309
23:55 1010 29.83 839 24.78 7.4 45.3 89 5.7 42.3 7.82 0.308
23:56 1010 29.83 839 24.78 7.4 45.3 89 5.8 42.4 7.79 0.307
23:57 1010 29.83 839 24.78 7.4 45.3 89 5.8 42.4 7.8 0.307
23:58 1010 29.83 839 24.78 7.4 45.3 89 5.7 42.3 7.83 0.308
23:59 1010 29.83 839 24.78 7.4 45.3 89 5.8 42.4 7.78 0.306
24:00 1010 29.83 839 24.78 7.4 45.3 89 5.7 42.3 7.79 0.307